Back to Top

Language: 

My Weather Underground Personal Weather Station Historical Data with Graphs...

Delerius Weather Station Historical Data
Daily Summary for December 20, 2017 Units:  Both    English   Metric
« Previous Day
Next Day »
Daily Weekly Monthly Yearly Custom
  High: Low: Average:
Temperature: 55.6 °F /  13.1 °C 46.6 °F /  8.1 °C 50.5 °F /  10.3 °C
Dew Point: 51.6 °F /  10.9 °C 44.8 °F /  7.1 °C 48.2 °F /  9 °C
Humidity: 96 % 85 % 92 %
Wind Speed: 15.0 mph /  24.1 km/h - 4.6 mph /  7.4 km/h
Wind Gust: 20.0 mph /  32.2 km/h - -
Wind:- - West
Pressure: 30.55 in /  1034.4 hPa 30.45 in /  1031 hPa -
Precipitation: 0.00 in /  0 mm    
Historical Graphs
 
 
Tabular Data for December 20, 2017
Time Temperature Dew Point Pressure Wind Wind Speed Wind Gust Humidity Rainfall Rate (Hourly) solar Conditions
00:03 47.8 °F /  8.8 °C 46.5 °F /  8.1 °C 30.48 in /  1032.1 hPa WSW 4.0 mph /  6.4 km/h 6.0 mph /  9.7 km/h 95 % 0.00 in /  0 mm 0 W/m2
00:05 47.8 °F /  8.8 °C 46.5 °F /  8.1 °C 30.48 in /  1032.1 hPa West 5.0 mph /  8 km/h 9.0 mph /  14.5 km/h 95 % 0.00 in /  0 mm 0 W/m2
00:09 48.2 °F /  9 °C 46.8 °F /  8.2 °C 30.48 in /  1032.1 hPa West 5.0 mph /  8 km/h 9.0 mph /  14.5 km/h 95 % 0.00 in /  0 mm 0 W/m2
00:10 48.4 °F /  9.1 °C 47.0 °F /  8.3 °C 30.48 in /  1032.1 hPa West 5.0 mph /  8 km/h 10.0 mph /  16.1 km/h 95 % 0.00 in /  0 mm 0 W/m2
00:15 48.6 °F /  9.2 °C 47.2 °F /  8.4 °C 30.48 in /  1032.1 hPa West 7.0 mph /  11.3 km/h 11.0 mph /  17.7 km/h 95 % 0.00 in /  0 mm 0 W/m2
00:20 48.7 °F /  9.3 °C 47.4 °F /  8.6 °C 30.48 in /  1032.1 hPa West 6.0 mph /  9.7 km/h 10.0 mph /  16.1 km/h 95 % 0.00 in /  0 mm 0 W/m2
00:21 48.7 °F /  9.3 °C 47.4 °F /  8.6 °C 30.48 in /  1032.1 hPa West 5.0 mph /  8 km/h 10.0 mph /  16.1 km/h 95 % 0.00 in /  0 mm 0 W/m2
00:26 48.7 °F /  9.3 °C 47.4 °F /  8.6 °C 30.48 in /  1032.1 hPa WSW 6.0 mph /  9.7 km/h 9.0 mph /  14.5 km/h 95 % 0.00 in /  0 mm 0 W/m2
00:27 48.7 °F /  9.3 °C 47.4 °F /  8.6 °C 30.48 in /  1032.1 hPa WSW 6.0 mph /  9.7 km/h 9.0 mph /  14.5 km/h 95 % 0.00 in /  0 mm 0 W/m2
00:32 48.7 °F /  9.3 °C 47.1 °F /  8.4 °C 30.47 in /  1031.7 hPa West 7.0 mph /  11.3 km/h 10.0 mph /  16.1 km/h 94 % 0.00 in /  0 mm 0 W/m2
00:33 48.7 °F /  9.3 °C 47.1 °F /  8.4 °C 30.47 in /  1031.7 hPa West 7.0 mph /  11.3 km/h 10.0 mph /  16.1 km/h 94 % 0.00 in /  0 mm 0 W/m2
00:38 48.7 °F /  9.3 °C 47.1 °F /  8.4 °C 30.47 in /  1031.7 hPa West 6.0 mph /  9.7 km/h 9.0 mph /  14.5 km/h 94 % 0.00 in /  0 mm 0 W/m2
00:39 48.7 °F /  9.3 °C 47.1 °F /  8.4 °C 30.48 in /  1032.1 hPa West 6.0 mph /  9.7 km/h 9.0 mph /  14.5 km/h 94 % 0.00 in /  0 mm 0 W/m2
00:45 48.6 °F /  9.2 °C 46.9 °F /  8.3 °C 30.47 in /  1031.7 hPa WNW 6.0 mph /  9.7 km/h 10.0 mph /  16.1 km/h 94 % 0.00 in /  0 mm 0 W/m2
00:50 48.4 °F /  9.1 °C 46.4 °F /  8 °C 30.47 in /  1031.7 hPa WNW 7.0 mph /  11.3 km/h 11.0 mph /  17.7 km/h 93 % 0.00 in /  0 mm 0 W/m2
00:55 48.4 °F /  9.1 °C 46.7 °F /  8.2 °C 30.47 in /  1031.7 hPa West 8.0 mph /  12.9 km/h 12.0 mph /  19.3 km/h 94 % 0.00 in /  0 mm 0 W/m2
00:58 48.4 °F /  9.1 °C 46.7 °F /  8.2 °C 30.47 in /  1031.7 hPa West 8.0 mph /  12.9 km/h 15.0 mph /  24.1 km/h 94 % 0.00 in /  0 mm 0 W/m2
01:03 48.6 °F /  9.2 °C 46.9 °F /  8.3 °C 30.47 in /  1031.7 hPa West 9.0 mph /  14.5 km/h 16.0 mph /  25.7 km/h 94 % 0.00 in /  0 mm 0 W/m2
01:05 48.6 °F /  9.2 °C 46.9 °F /  8.3 °C 30.47 in /  1031.7 hPa West 8.0 mph /  12.9 km/h 12.0 mph /  19.3 km/h 94 % 0.00 in /  0 mm 0 W/m2
01:06 48.6 °F /  9.2 °C 46.9 °F /  8.3 °C 30.47 in /  1031.7 hPa WNW 8.0 mph /  12.9 km/h 11.0 mph /  17.7 km/h 94 % 0.00 in /  0 mm 0 W/m2
01:11 48.6 °F /  9.2 °C 46.6 °F /  8.1 °C 30.47 in /  1031.7 hPa WNW 7.0 mph /  11.3 km/h 10.0 mph /  16.1 km/h 93 % 0.00 in /  0 mm 0 W/m2
01:12 48.6 °F /  9.2 °C 46.6 °F /  8.1 °C 30.47 in /  1031.7 hPa WNW 7.0 mph /  11.3 km/h 9.0 mph /  14.5 km/h 93 % 0.00 in /  0 mm 0 W/m2
01:17 48.6 °F /  9.2 °C 46.9 °F /  8.3 °C 30.47 in /  1031.7 hPa West 8.0 mph /  12.9 km/h 12.0 mph /  19.3 km/h 94 % 0.00 in /  0 mm 0 W/m2
01:21 48.9 °F /  9.4 °C 47.3 °F /  8.5 °C 30.47 in /  1031.7 hPa West 7.0 mph /  11.3 km/h 10.0 mph /  16.1 km/h 94 % 0.00 in /  0 mm 0 W/m2
01:26 48.9 °F /  9.4 °C 47.3 °F /  8.5 °C 30.47 in /  1031.7 hPa West 7.0 mph /  11.3 km/h 11.0 mph /  17.7 km/h 94 % 0.00 in /  0 mm 0 W/m2
01:27 49.1 °F /  9.5 °C 47.4 °F /  8.6 °C 30.47 in /  1031.7 hPa West 7.0 mph /  11.3 km/h 11.0 mph /  17.7 km/h 94 % 0.00 in /  0 mm 0 W/m2
01:28 49.1 °F /  9.5 °C 47.4 °F /  8.6 °C 30.47 in /  1031.7 hPa West 6.0 mph /  9.7 km/h 10.0 mph /  16.1 km/h 94 % 0.00 in /  0 mm 0 W/m2
01:33 49.3 °F /  9.6 °C 47.6 °F /  8.7 °C 30.48 in /  1032.1 hPa WSW 7.0 mph /  11.3 km/h 9.0 mph /  14.5 km/h 94 % 0.00 in /  0 mm 0 W/m2
01:36 49.3 °F /  9.6 °C 47.6 °F /  8.7 °C 30.48 in /  1032.1 hPa WSW 6.0 mph /  9.7 km/h 10.0 mph /  16.1 km/h 94 % 0.00 in /  0 mm 0 W/m2
01:41 49.3 °F /  9.6 °C 47.6 °F /  8.7 °C 30.48 in /  1032.1 hPa WSW 5.0 mph /  8 km/h 8.0 mph /  12.9 km/h 94 % 0.00 in /  0 mm 0 W/m2
01:46 49.3 °F /  9.6 °C 47.3 °F /  8.5 °C 30.47 in /  1031.7 hPa Calm   2.0 mph /  3.2 km/h 93 % 0.00 in /  0 mm 0 W/m2
01:47 49.1 °F /  9.5 °C 47.2 °F /  8.4 °C 30.48 in /  1032.1 hPa Calm   1.0 mph /  1.6 km/h 93 % 0.00 in /  0 mm 0 W/m2
01:52 48.9 °F /  9.4 °C 47.0 °F /  8.3 °C 30.48 in /  1032.1 hPa Calm     93 % 0.00 in /  0 mm 0 W/m2
01:56 48.9 °F /  9.4 °C 47.0 °F /  8.3 °C 30.47 in /  1031.7 hPa Calm     93 % 0.00 in /  0 mm 0 W/m2
02:01 48.9 °F /  9.4 °C 47.0 °F /  8.3 °C 30.47 in /  1031.7 hPa Calm   2.0 mph /  3.2 km/h 93 % 0.00 in /  0 mm 0 W/m2
02:02 48.9 °F /  9.4 °C 47.0 °F /  8.3 °C 30.47 in /  1031.7 hPa Calm   2.0 mph /  3.2 km/h 93 % 0.00 in /  0 mm 0 W/m2
02:03 48.9 °F /  9.4 °C 47.0 °F /  8.3 °C 30.47 in /  1031.7 hPa Calm     93 % 0.00 in /  0 mm 0 W/m2
02:08 48.9 °F /  9.4 °C 47.0 °F /  8.3 °C 30.47 in /  1031.7 hPa Calm     93 % 0.00 in /  0 mm 0 W/m2
02:13 48.7 °F /  9.3 °C 46.8 °F /  8.2 °C 30.47 in /  1031.7 hPa Calm   2.0 mph /  3.2 km/h 93 % 0.00 in /  0 mm 0 W/m2
02:15 48.7 °F /  9.3 °C 46.8 °F /  8.2 °C 30.47 in /  1031.7 hPa Calm   1.0 mph /  1.6 km/h 93 % 0.00 in /  0 mm 0 W/m2
02:20 48.7 °F /  9.3 °C 46.8 °F /  8.2 °C 30.47 in /  1031.7 hPa Calm   1.0 mph /  1.6 km/h 93 % 0.00 in /  0 mm 0 W/m2
02:21 48.6 °F /  9.2 °C 46.6 °F /  8.1 °C 30.47 in /  1031.7 hPa Calm   2.0 mph /  3.2 km/h 93 % 0.00 in /  0 mm 0 W/m2
02:26 48.6 °F /  9.2 °C 46.6 °F /  8.1 °C 30.47 in /  1031.7 hPa Calm   2.0 mph /  3.2 km/h 93 % 0.00 in /  0 mm 0 W/m2
02:27 48.6 °F /  9.2 °C 46.6 °F /  8.1 °C 30.47 in /  1031.7 hPa Calm   2.0 mph /  3.2 km/h 93 % 0.00 in /  0 mm 0 W/m2
02:29 48.4 °F /  9.1 °C 46.4 °F /  8 °C 30.47 in /  1031.7 hPa Calm   2.0 mph /  3.2 km/h 93 % 0.00 in /  0 mm 0 W/m2
02:32 48.4 °F /  9.1 °C 46.4 °F /  8 °C 30.47 in /  1031.7 hPa Calm     93 % 0.00 in /  0 mm 0 W/m2
02:37 48.0 °F /  8.9 °C 46.1 °F /  7.8 °C 30.47 in /  1031.7 hPa Calm     93 % 0.00 in /  0 mm 0 W/m2
02:38 48.0 °F /  8.9 °C 46.1 °F /  7.8 °C 30.47 in /  1031.7 hPa Calm     93 % 0.00 in /  0 mm 0 W/m2
02:43 47.8 °F /  8.8 °C 45.6 °F /  7.6 °C 30.47 in /  1031.7 hPa Calm     92 % 0.00 in /  0 mm 0 W/m2
02:48 47.7 °F /  8.7 °C 45.7 °F /  7.6 °C 30.47 in /  1031.7 hPa Calm     93 % 0.00 in /  0 mm 0 W/m2
02:49 47.5 °F /  8.6 °C 45.6 °F /  7.6 °C 30.47 in /  1031.7 hPa Calm     93 % 0.00 in /  0 mm 0 W/m2
02:54 47.3 °F /  8.5 °C 45.4 °F /  7.4 °C 30.47 in /  1031.7 hPa Calm     93 % 0.00 in /  0 mm 0 W/m2
02:57 47.3 °F /  8.5 °C 45.4 °F /  7.4 °C 30.47 in /  1031.7 hPa Calm     93 % 0.00 in /  0 mm 0 W/m2
03:02 47.1 °F /  8.4 °C 45.2 °F /  7.3 °C 30.47 in /  1031.7 hPa Calm     93 % 0.00 in /  0 mm 0 W/m2
03:03 47.1 °F /  8.4 °C 45.2 °F /  7.3 °C 30.46 in /  1031.4 hPa Calm     93 % 0.00 in /  0 mm 0 W/m2
03:06 47.1 °F /  8.4 °C 45.2 °F /  7.3 °C 30.47 in /  1031.7 hPa Calm     93 % 0.00 in /  0 mm 0 W/m2
03:11 47.1 °F /  8.4 °C 45.2 °F /  7.3 °C 30.47 in /  1031.7 hPa West 1.0 mph /  1.6 km/h 2.0 mph /  3.2 km/h 93 % 0.00 in /  0 mm 0 W/m2
03:16 47.1 °F /  8.4 °C 45.5 °F /  7.5 °C 30.47 in /  1031.7 hPa Calm   2.0 mph /  3.2 km/h 94 % 0.00 in /  0 mm 0 W/m2
03:21 47.1 °F /  8.4 °C 45.5 °F /  7.5 °C 30.47 in /  1031.7 hPa Calm   1.0 mph /  1.6 km/h 94 % 0.00 in /  0 mm 0 W/m2
03:26 46.9 °F /  8.3 °C 45.3 °F /  7.4 °C 30.47 in /  1031.7 hPa Calm   2.0 mph /  3.2 km/h 94 % 0.00 in /  0 mm 0 W/m2
03:28 46.8 °F /  8.2 °C 44.8 °F /  7.1 °C 30.47 in /  1031.7 hPa Calm   2.0 mph /  3.2 km/h 93 % 0.00 in /  0 mm 0 W/m2
03:33 46.6 °F /  8.1 °C 44.9 °F /  7.2 °C 30.47 in /  1031.7 hPa West 1.0 mph /  1.6 km/h 5.0 mph /  8 km/h 94 % 0.00 in /  0 mm 0 W/m2
03:35 46.6 °F /  8.1 °C 44.9 °F /  7.2 °C 30.47 in /  1031.7 hPa WNW 1.0 mph /  1.6 km/h 4.0 mph /  6.4 km/h 94 % 0.00 in /  0 mm 0 W/m2
03:40 46.6 °F /  8.1 °C 44.9 °F /  7.2 °C 30.47 in /  1031.7 hPa West 1.0 mph /  1.6 km/h 5.0 mph /  8 km/h 94 % 0.00 in /  0 mm 0 W/m2
03:44 46.6 °F /  8.1 °C 44.9 °F /  7.2 °C 30.46 in /  1031.4 hPa West 2.0 mph /  3.2 km/h 5.0 mph /  8 km/h 94 % 0.00 in /  0 mm 0 W/m2
03:46 46.6 °F /  8.1 °C 44.9 °F /  7.2 °C 30.46 in /  1031.4 hPa SW 1.0 mph /  1.6 km/h 4.0 mph /  6.4 km/h 94 % 0.00 in /  0 mm 0 W/m2
03:51 46.6 °F /  8.1 °C 44.9 °F /  7.2 °C 30.46 in /  1031.4 hPa Calm     94 % 0.00 in /  0 mm 0 W/m2
03:53 46.6 °F /  8.1 °C 44.9 °F /  7.2 °C 30.46 in /  1031.4 hPa Calm   2.0 mph /  3.2 km/h 94 % 0.00 in /  0 mm 0 W/m2
03:58 46.8 °F /  8.2 °C 45.4 °F /  7.4 °C 30.46 in /  1031.4 hPa West 2.0 mph /  3.2 km/h 5.0 mph /  8 km/h 95 % 0.00 in /  0 mm 0 W/m2
04:03 46.9 °F /  8.3 °C 45.6 °F /  7.6 °C 30.46 in /  1031.4 hPa WNW 4.0 mph /  6.4 km/h 7.0 mph /  11.3 km/h 95 % 0.00 in /  0 mm 0 W/m2
04:07 47.7 °F /  8.7 °C 46.6 °F /  8.1 °C 30.46 in /  1031.4 hPa WNW 4.0 mph /  6.4 km/h 6.0 mph /  9.7 km/h 96 % 0.00 in /  0 mm 0 W/m2
04:08 47.7 °F /  8.7 °C 46.6 °F /  8.1 °C 30.47 in /  1031.7 hPa WNW 5.0 mph /  8 km/h 8.0 mph /  12.9 km/h 96 % 0.00 in /  0 mm 0 W/m2
04:13 48.2 °F /  9 °C 47.1 °F /  8.4 °C 30.46 in /  1031.4 hPa WNW 4.0 mph /  6.4 km/h 7.0 mph /  11.3 km/h 96 % 0.00 in /  0 mm 0 W/m2
04:15 48.2 °F /  9 °C 47.1 °F /  8.4 °C 30.46 in /  1031.4 hPa WNW 3.0 mph /  4.8 km/h 5.0 mph /  8 km/h 96 % 0.00 in /  0 mm 0 W/m2
04:20 48.6 °F /  9.2 °C 47.5 °F /  8.6 °C 30.46 in /  1031.4 hPa NW 3.0 mph /  4.8 km/h 5.0 mph /  8 km/h 96 % 0.00 in /  0 mm 0 W/m2
04:21 48.7 °F /  9.3 °C 47.7 °F /  8.7 °C 30.46 in /  1031.4 hPa NW 3.0 mph /  4.8 km/h 5.0 mph /  8 km/h 96 % 0.00 in /  0 mm 0 W/m2
04:26 48.9 °F /  9.4 °C 47.6 °F /  8.7 °C 30.46 in /  1031.4 hPa WNW 2.0 mph /  3.2 km/h 5.0 mph /  8 km/h 95 % 0.00 in /  0 mm 0 W/m2
04:28 48.9 °F /  9.4 °C 47.6 °F /  8.7 °C 30.46 in /  1031.4 hPa WNW 1.0 mph /  1.6 km/h 4.0 mph /  6.4 km/h 95 % 0.00 in /  0 mm 0 W/m2
04:33 48.9 °F /  9.4 °C 47.6 °F /  8.7 °C 30.47 in /  1031.7 hPa NW 3.0 mph /  4.8 km/h 5.0 mph /  8 km/h 95 % 0.00 in /  0 mm 0 W/m2
04:34 48.9 °F /  9.4 °C 47.6 °F /  8.7 °C 30.47 in /  1031.7 hPa NW 2.0 mph /  3.2 km/h 5.0 mph /  8 km/h 95 % 0.00 in /  0 mm 0 W/m2
04:37 48.9 °F /  9.4 °C 47.6 °F /  8.7 °C 30.46 in /  1031.4 hPa NW 1.0 mph /  1.6 km/h 4.0 mph /  6.4 km/h 95 % 0.00 in /  0 mm 0 W/m2
04:42 48.9 °F /  9.4 °C 47.6 °F /  8.7 °C 30.47 in /  1031.7 hPa NW 1.0 mph /  1.6 km/h 3.0 mph /  4.8 km/h 95 % 0.00 in /  0 mm 0 W/m2
04:47 48.6 °F /  9.2 °C 46.9 °F /  8.3 °C 30.46 in /  1031.4 hPa WSW 1.0 mph /  1.6 km/h 4.0 mph /  6.4 km/h 94 % 0.00 in /  0 mm 0 W/m2
04:50 48.6 °F /  9.2 °C 46.9 °F /  8.3 °C 30.46 in /  1031.4 hPa West 1.0 mph /  1.6 km/h 4.0 mph /  6.4 km/h 94 % 0.00 in /  0 mm 0 W/m2
04:55 48.4 °F /  9.1 °C 46.7 °F /  8.2 °C 30.46 in /  1031.4 hPa Calm   3.0 mph /  4.8 km/h 94 % 0.00 in /  0 mm 0 W/m2
04:57 48.4 °F /  9.1 °C 46.7 °F /  8.2 °C 30.46 in /  1031.4 hPa WSW 1.0 mph /  1.6 km/h 7.0 mph /  11.3 km/h 94 % 0.00 in /  0 mm 0 W/m2
05:02 48.4 °F /  9.1 °C 46.7 °F /  8.2 °C 30.46 in /  1031.4 hPa SW 1.0 mph /  1.6 km/h 5.0 mph /  8 km/h 94 % 0.00 in /  0 mm 0 W/m2
05:05 48.4 °F /  9.1 °C 46.7 °F /  8.2 °C 30.46 in /  1031.4 hPa Calm   2.0 mph /  3.2 km/h 94 % 0.00 in /  0 mm 0 W/m2
05:09 48.2 °F /  9 °C 46.6 °F /  8.1 °C 30.46 in /  1031.4 hPa SW 1.0 mph /  1.6 km/h 5.0 mph /  8 km/h 94 % 0.00 in /  0 mm 0 W/m2
05:14 48.2 °F /  9 °C 46.6 °F /  8.1 °C 30.46 in /  1031.4 hPa WSW 2.0 mph /  3.2 km/h 5.0 mph /  8 km/h 94 % 0.00 in /  0 mm 0 W/m2
05:15 48.2 °F /  9 °C 46.6 °F /  8.1 °C 30.46 in /  1031.4 hPa WSW 2.0 mph /  3.2 km/h 5.0 mph /  8 km/h 94 % 0.00 in /  0 mm 0 W/m2
05:20 48.4 °F /  9.1 °C 46.7 °F /  8.2 °C 30.46 in /  1031.4 hPa Calm   1.0 mph /  1.6 km/h 94 % 0.00 in /  0 mm 0 W/m2
05:21 48.4 °F /  9.1 °C 46.7 °F /  8.2 °C 30.45 in /  1031 hPa Calm   1.0 mph /  1.6 km/h 94 % 0.00 in /  0 mm 0 W/m2
05:26 48.2 °F /  9 °C 46.6 °F /  8.1 °C 30.45 in /  1031 hPa WSW 1.0 mph /  1.6 km/h 5.0 mph /  8 km/h 94 % 0.00 in /  0 mm 0 W/m2
05:30 48.2 °F /  9 °C 46.6 °F /  8.1 °C 30.45 in /  1031 hPa Calm     94 % 0.00 in /  0 mm 0 W/m2
05:31 48.0 °F /  8.9 °C 46.4 °F /  8 °C 30.46 in /  1031.4 hPa Calm     94 % 0.00 in /  0 mm 0 W/m2
05:36 48.0 °F /  8.9 °C 46.4 °F /  8 °C 30.46 in /  1031.4 hPa Calm   1.0 mph /  1.6 km/h 94 % 0.00 in /  0 mm 0 W/m2
05:38 47.8 °F /  8.8 °C 46.2 °F /  7.9 °C 30.46 in /  1031.4 hPa Calm     94 % 0.00 in /  0 mm 0 W/m2
05:43 47.8 °F /  8.8 °C 46.2 °F /  7.9 °C 30.46 in /  1031.4 hPa Calm     94 % 0.00 in /  0 mm 0 W/m2
05:44 47.8 °F /  8.8 °C 46.2 °F /  7.9 °C 30.46 in /  1031.4 hPa Calm     94 % 0.00 in /  0 mm 0 W/m2
05:49 47.8 °F /  8.8 °C 46.2 °F /  7.9 °C 30.46 in /  1031.4 hPa WSW 1.0 mph /  1.6 km/h 6.0 mph /  9.7 km/h 94 % 0.00 in /  0 mm 0 W/m2
05:50 47.8 °F /  8.8 °C 46.2 °F /  7.9 °C 30.46 in /  1031.4 hPa West 2.0 mph /  3.2 km/h 6.0 mph /  9.7 km/h 94 % 0.00 in /  0 mm 0 W/m2
05:51 47.8 °F /  8.8 °C 46.5 °F /  8.1 °C 30.46 in /  1031.4 hPa WSW 2.0 mph /  3.2 km/h 6.0 mph /  9.7 km/h 95 % 0.00 in /  0 mm 0 W/m2
05:56 48.2 °F /  9 °C 46.8 °F /  8.2 °C 30.46 in /  1031.4 hPa Calm   1.0 mph /  1.6 km/h 95 % 0.00 in /  0 mm 0 W/m2
05:57 48.2 °F /  9 °C 46.8 °F /  8.2 °C 30.46 in /  1031.4 hPa Calm   1.0 mph /  1.6 km/h 95 % 0.00 in /  0 mm 0 W/m2
06:00 48.4 °F /  9.1 °C 47.0 °F /  8.3 °C 30.46 in /  1031.4 hPa WNW 2.0 mph /  3.2 km/h 5.0 mph /  8 km/h 95 % 0.00 in /  0 mm 0 W/m2
06:03 48.6 °F /  9.2 °C 47.2 °F /  8.4 °C 30.46 in /  1031.4 hPa WNW 4.0 mph /  6.4 km/h 7.0 mph /  11.3 km/h 95 % 0.00 in /  0 mm 0 W/m2
06:08 48.9 °F /  9.4 °C 47.6 °F /  8.7 °C 30.46 in /  1031.4 hPa West 8.0 mph /  12.9 km/h 13.0 mph /  20.9 km/h 95 % 0.00 in /  0 mm 0 W/m2
06:09 49.1 °F /  9.5 °C 47.7 °F /  8.7 °C 30.46 in /  1031.4 hPa West 6.0 mph /  9.7 km/h 11.0 mph /  17.7 km/h 95 % 0.00 in /  0 mm 0 W/m2
06:14 49.5 °F /  9.7 °C 48.1 °F /  8.9 °C 30.46 in /  1031.4 hPa West 5.0 mph /  8 km/h 7.0 mph /  11.3 km/h 95 % 0.00 in /  0 mm 0 W/m2
06:19 49.6 °F /  9.8 °C 48.3 °F /  9.1 °C 30.46 in /  1031.4 hPa WNW 6.0 mph /  9.7 km/h 8.0 mph /  12.9 km/h 95 % 0.00 in /  0 mm 0 W/m2
06:22 49.8 °F /  9.9 °C 48.4 °F /  9.1 °C 30.46 in /  1031.4 hPa WNW 8.0 mph /  12.9 km/h 11.0 mph /  17.7 km/h 95 % 0.00 in /  0 mm 0 W/m2
06:24 50.0 °F /  10 °C 48.6 °F /  9.2 °C 30.47 in /  1031.7 hPa WNW 6.0 mph /  9.7 km/h 11.0 mph /  17.7 km/h 95 % 0.00 in /  0 mm 0 W/m2
06:29 50.2 °F /  10.1 °C 48.8 °F /  9.3 °C 30.47 in /  1031.7 hPa West 7.0 mph /  11.3 km/h 10.0 mph /  16.1 km/h 95 % 0.00 in /  0 mm 0 W/m2
06:31 50.2 °F /  10.1 °C 48.8 °F /  9.3 °C 30.47 in /  1031.7 hPa WNW 6.0 mph /  9.7 km/h 9.0 mph /  14.5 km/h 95 % 0.00 in /  0 mm 0 W/m2
06:33 50.2 °F /  10.1 °C 48.5 °F /  9.2 °C 30.47 in /  1031.7 hPa West 6.0 mph /  9.7 km/h 9.0 mph /  14.5 km/h 94 % 0.00 in /  0 mm 0 W/m2
06:37 50.2 °F /  10.1 °C 48.5 °F /  9.2 °C 30.47 in /  1031.7 hPa West 7.0 mph /  11.3 km/h 11.0 mph /  17.7 km/h 94 % 0.00 in /  0 mm 0 W/m2
06:42 50.2 °F /  10.1 °C 48.5 °F /  9.2 °C 30.47 in /  1031.7 hPa WNW 4.0 mph /  6.4 km/h 9.0 mph /  14.5 km/h 94 % 0.00 in /  0 mm 0 W/m2
06:47 50.2 °F /  10.1 °C 48.5 °F /  9.2 °C 30.47 in /  1031.7 hPa West 3.0 mph /  4.8 km/h 6.0 mph /  9.7 km/h 94 % 0.00 in /  0 mm 0 W/m2
06:49 50.2 °F /  10.1 °C 48.5 °F /  9.2 °C 30.47 in /  1031.7 hPa WSW 3.0 mph /  4.8 km/h 6.0 mph /  9.7 km/h 94 % 0.00 in /  0 mm 0 W/m2
06:54 50.2 °F /  10.1 °C 48.5 °F /  9.2 °C 30.47 in /  1031.7 hPa West 5.0 mph /  8 km/h 6.0 mph /  9.7 km/h 94 % 0.00 in /  0 mm 0 W/m2
06:55 50.2 °F /  10.1 °C 48.2 °F /  9 °C 30.47 in /  1031.7 hPa West 5.0 mph /  8 km/h 7.0 mph /  11.3 km/h 93 % 0.00 in /  0 mm 0 W/m2
07:00 50.2 °F /  10.1 °C 48.2 °F /  9 °C 30.47 in /  1031.7 hPa West 6.0 mph /  9.7 km/h 9.0 mph /  14.5 km/h 93 % 0.00 in /  0 mm 0 W/m2
07:01 50.2 °F /  10.1 °C 48.2 °F /  9 °C 30.47 in /  1031.7 hPa West 6.0 mph /  9.7 km/h 9.0 mph /  14.5 km/h 93 % 0.00 in /  0 mm 0 W/m2
07:06 50.2 °F /  10.1 °C 48.2 °F /  9 °C 30.47 in /  1031.7 hPa WNW 8.0 mph /  12.9 km/h 12.0 mph /  19.3 km/h 93 % 0.00 in /  0 mm 0 W/m2
07:07 50.0 °F /  10 °C 48.1 °F /  8.9 °C 30.47 in /  1031.7 hPa West 9.0 mph /  14.5 km/h 13.0 mph /  20.9 km/h 93 % 0.00 in /  0 mm 0 W/m2
07:11 50.0 °F /  10 °C 48.1 °F /  8.9 °C 30.47 in /  1031.7 hPa WNW 9.0 mph /  14.5 km/h 14.0 mph /  22.5 km/h 93 % 0.00 in /  0 mm 0 W/m2
07:12 49.8 °F /  9.9 °C 47.9 °F /  8.8 °C 30.47 in /  1031.7 hPa WNW 9.0 mph /  14.5 km/h 14.0 mph /  22.5 km/h 93 % 0.00 in /  0 mm 0 W/m2
07:17 49.8 °F /  9.9 °C 47.9 °F /  8.8 °C 30.47 in /  1031.7 hPa WNW 10.0 mph /  16.1 km/h 14.0 mph /  22.5 km/h 93 % 0.00 in /  0 mm 0 W/m2
07:18 49.8 °F /  9.9 °C 47.9 °F /  8.8 °C 30.47 in /  1031.7 hPa WNW 10.0 mph /  16.1 km/h 14.0 mph /  22.5 km/h 93 % 0.00 in /  0 mm 0 W/m2
07:23 49.8 °F /  9.9 °C 48.2 °F /  9 °C 30.47 in /  1031.7 hPa WNW 11.0 mph /  17.7 km/h 16.0 mph /  25.7 km/h 94 % 0.00 in /  0 mm 0 W/m2
07:29 49.8 °F /  9.9 °C 48.2 °F /  9 °C 30.47 in /  1031.7 hPa WNW 11.0 mph /  17.7 km/h 14.0 mph /  22.5 km/h 94 % 0.00 in /  0 mm 0 W/m2
07:33 49.8 °F /  9.9 °C 48.2 °F /  9 °C 30.48 in /  1032.1 hPa WNW 10.0 mph /  16.1 km/h 14.0 mph /  22.5 km/h 94 % 0.00 in /  0 mm 0 W/m2
07:37 50.0 °F /  10 °C 48.3 °F /  9.1 °C 30.47 in /  1031.7 hPa West 10.0 mph /  16.1 km/h 12.0 mph /  19.3 km/h 94 % 0.00 in /  0 mm 0 W/m2
07:41 50.0 °F /  10 °C 48.3 °F /  9.1 °C 30.48 in /  1032.1 hPa West 8.0 mph /  12.9 km/h 13.0 mph /  20.9 km/h 94 % 0.00 in /  0 mm 0 W/m2
07:42 50.0 °F /  10 °C 48.3 °F /  9.1 °C 30.48 in /  1032.1 hPa West 8.0 mph /  12.9 km/h 13.0 mph /  20.9 km/h 94 % 0.00 in /  0 mm 0 W/m2
07:47 50.2 °F /  10.1 °C 48.2 °F /  9 °C 30.48 in /  1032.1 hPa West 8.0 mph /  12.9 km/h 13.0 mph /  20.9 km/h 93 % 0.00 in /  0 mm 0 W/m2
07:49 50.2 °F /  10.1 °C 48.2 °F /  9 °C 30.48 in /  1032.1 hPa West 8.0 mph /  12.9 km/h 13.0 mph /  20.9 km/h 93 % 0.00 in /  0 mm 0 W/m2
07:53 50.2 °F /  10.1 °C 48.2 °F /  9 °C 30.48 in /  1032.1 hPa West 7.0 mph /  11.3 km/h 11.0 mph /  17.7 km/h 93 % 0.00 in /  0 mm 0 W/m2
07:58 50.2 °F /  10.1 °C 48.2 °F /  9 °C 30.48 in /  1032.1 hPa West 6.0 mph /  9.7 km/h 9.0 mph /  14.5 km/h 93 % 0.00 in /  0 mm 0 W/m2
08:01 50.2 °F /  10.1 °C 48.2 °F /  9 °C 30.48 in /  1032.1 hPa West 5.0 mph /  8 km/h 10.0 mph /  16.1 km/h 93 % 0.00 in /  0 mm 0 W/m2
08:06 50.2 °F /  10.1 °C 48.2 °F /  9 °C 30.48 in /  1032.1 hPa West 5.0 mph /  8 km/h 9.0 mph /  14.5 km/h 93 % 0.00 in /  0 mm 0 W/m2
08:08 50.2 °F /  10.1 °C 48.2 °F /  9 °C 30.48 in /  1032.1 hPa West 7.0 mph /  11.3 km/h 11.0 mph /  17.7 km/h 93 % 0.00 in /  0 mm 0 W/m2
08:10 50.2 °F /  10.1 °C 48.2 °F /  9 °C 30.48 in /  1032.1 hPa West 7.0 mph /  11.3 km/h 11.0 mph /  17.7 km/h 93 % 0.00 in /  0 mm 0 W/m2
08:14 50.2 °F /  10.1 °C 48.2 °F /  9 °C 30.49 in /  1032.4 hPa West 7.0 mph /  11.3 km/h 11.0 mph /  17.7 km/h 93 % 0.00 in /  0 mm 0 W/m2
08:19 50.2 °F /  10.1 °C 48.2 °F /  9 °C 30.48 in /  1032.1 hPa WNW 7.0 mph /  11.3 km/h 10.0 mph /  16.1 km/h 93 % 0.00 in /  0 mm 5 W/m2
08:21 50.2 °F /  10.1 °C 48.2 °F /  9 °C 30.49 in /  1032.4 hPa WNW 6.0 mph /  9.7 km/h 9.0 mph /  14.5 km/h 93 % 0.00 in /  0 mm 5 W/m2
08:26 50.2 °F /  10.1 °C 48.2 °F /  9 °C 30.49 in /  1032.4 hPa WNW 7.0 mph /  11.3 km/h 9.0 mph /  14.5 km/h 93 % 0.00 in /  0 mm 7 W/m2
08:27 50.2 °F /  10.1 °C 48.2 °F /  9 °C 30.49 in /  1032.4 hPa WNW 7.0 mph /  11.3 km/h 9.0 mph /  14.5 km/h 93 % 0.00 in /  0 mm 7 W/m2
08:32 50.2 °F /  10.1 °C 48.2 °F /  9 °C 30.49 in /  1032.4 hPa WNW 6.0 mph /  9.7 km/h 8.0 mph /  12.9 km/h 93 % 0.00 in /  0 mm 9 W/m2
08:34 50.2 °F /  10.1 °C 48.2 °F /  9 °C 30.49 in /  1032.4 hPa WNW 6.0 mph /  9.7 km/h 8.0 mph /  12.9 km/h 93 % 0.00 in /  0 mm 11 W/m2
08:39 50.2 °F /  10.1 °C 48.2 °F /  9 °C 30.49 in /  1032.4 hPa WNW 4.0 mph /  6.4 km/h 7.0 mph /  11.3 km/h 93 % 0.00 in /  0 mm 9 W/m2
08:41 50.2 °F /  10.1 °C 48.2 °F /  9 °C 30.49 in /  1032.4 hPa WNW 5.0 mph /  8 km/h 7.0 mph /  11.3 km/h 93 % 0.00 in /  0 mm 9 W/m2
08:45 50.2 °F /  10.1 °C 48.2 °F /  9 °C 30.49 in /  1032.4 hPa WNW 4.0 mph /  6.4 km/h 7.0 mph /  11.3 km/h 93 % 0.00 in /  0 mm 11 W/m2
08:49 50.2 °F /  10.1 °C 48.2 °F /  9 °C 30.49 in /  1032.4 hPa WNW 3.0 mph /  4.8 km/h 6.0 mph /  9.7 km/h 93 % 0.00 in /  0 mm 11 W/m2
08:51 50.2 °F /  10.1 °C 48.2 °F /  9 °C 30.49 in /  1032.4 hPa WNW 3.0 mph /  4.8 km/h 6.0 mph /  9.7 km/h 93 % 0.00 in /  0 mm 11 W/m2
08:56 50.2 °F /  10.1 °C 48.2 °F /  9 °C 30.49 in /  1032.4 hPa WNW 3.0 mph /  4.8 km/h 5.0 mph /  8 km/h 93 % 0.00 in /  0 mm 9 W/m2
08:58 50.2 °F /  10.1 °C 48.2 °F /  9 °C 30.49 in /  1032.4 hPa WNW 2.0 mph /  3.2 km/h 5.0 mph /  8 km/h 93 % 0.00 in /  0 mm 11 W/m2
09:02 50.2 °F /  10.1 °C 48.2 °F /  9 °C 30.49 in /  1032.4 hPa Calm   1.0 mph /  1.6 km/h 93 % 0.00 in /  0 mm 14 W/m2
09:07 50.2 °F /  10.1 °C 48.2 °F /  9 °C 30.50 in /  1032.7 hPa West 1.0 mph /  1.6 km/h 2.0 mph /  3.2 km/h 93 % 0.00 in /  0 mm 16 W/m2
09:08 50.2 °F /  10.1 °C 48.2 °F /  9 °C 30.50 in /  1032.7 hPa West 1.0 mph /  1.6 km/h 2.0 mph /  3.2 km/h 93 % 0.00 in /  0 mm 16 W/m2
09:13 50.2 °F /  10.1 °C 48.2 °F /  9 °C 30.50 in /  1032.7 hPa East 1.0 mph /  1.6 km/h 3.0 mph /  4.8 km/h 93 % 0.00 in /  0 mm 18 W/m2
09:14 50.2 °F /  10.1 °C 48.2 °F /  9 °C 30.50 in /  1032.7 hPa East 1.0 mph /  1.6 km/h 2.0 mph /  3.2 km/h 93 % 0.00 in /  0 mm 18 W/m2
09:17 50.2 °F /  10.1 °C 48.2 °F /  9 °C 30.50 in /  1032.7 hPa Calm   1.0 mph /  1.6 km/h 93 % 0.00 in /  0 mm 19 W/m2
09:22 50.2 °F /  10.1 °C 48.2 °F /  9 °C 30.50 in /  1032.7 hPa Calm     93 % 0.00 in /  0 mm 23 W/m2
09:23 50.2 °F /  10.1 °C 48.2 °F /  9 °C 30.50 in /  1032.7 hPa Calm     93 % 0.00 in /  0 mm 25 W/m2
09:28 50.2 °F /  10.1 °C 48.2 °F /  9 °C 30.50 in /  1032.7 hPa Calm   2.0 mph /  3.2 km/h 93 % 0.00 in /  0 mm 30 W/m2
09:33 50.2 °F /  10.1 °C 48.2 °F /  9 °C 30.50 in /  1032.7 hPa Calm     93 % 0.00 in /  0 mm 28 W/m2
09:34 50.2 °F /  10.1 °C 48.2 °F /  9 °C 30.50 in /  1032.7 hPa Calm     93 % 0.00 in /  0 mm 26 W/m2
09:35 50.2 °F /  10.1 °C 48.2 °F /  9 °C 30.50 in /  1032.7 hPa Calm     93 % 0.00 in /  0 mm 26 W/m2
09:40 50.2 °F /  10.1 °C 48.2 °F /  9 °C 30.50 in /  1032.7 hPa Calm     93 % 0.00 in /  0 mm 35 W/m2
09:41 50.2 °F /  10.1 °C 48.2 °F /  9 °C 30.50 in /  1032.7 hPa Calm   1.0 mph /  1.6 km/h 93 % 0.00 in /  0 mm 37 W/m2
09:46 50.4 °F /  10.2 °C 48.7 °F /  9.3 °C 30.50 in /  1032.7 hPa Calm     94 % 0.00 in /  0 mm 44 W/m2
09:48 50.4 °F /  10.2 °C 48.7 °F /  9.3 °C 30.50 in /  1032.7 hPa Calm   1.0 mph /  1.6 km/h 94 % 0.00 in /  0 mm 56 W/m2
09:53 50.4 °F /  10.2 °C 48.7 °F /  9.3 °C 30.50 in /  1032.7 hPa Calm   1.0 mph /  1.6 km/h 94 % 0.00 in /  0 mm 74 W/m2
09:54 50.4 °F /  10.2 °C 48.7 °F /  9.3 °C 30.50 in /  1032.7 hPa Calm   1.0 mph /  1.6 km/h 94 % 0.00 in /  0 mm 83 W/m2
09:59 50.4 °F /  10.2 °C 48.7 °F /  9.3 °C 30.50 in /  1032.7 hPa Calm   2.0 mph /  3.2 km/h 94 % 0.00 in /  0 mm 84 W/m2
10:04 50.7 °F /  10.4 °C 49.1 °F /  9.5 °C 30.50 in /  1032.7 hPa WSW 5.0 mph /  8 km/h 6.0 mph /  9.7 km/h 94 % 0.00 in /  0 mm 158 W/m2
10:05 50.7 °F /  10.4 °C 49.1 °F /  9.5 °C 30.50 in /  1032.7 hPa WSW 5.0 mph /  8 km/h 7.0 mph /  11.3 km/h 94 % 0.00 in /  0 mm 158 W/m2
10:06 50.7 °F /  10.4 °C 49.1 °F /  9.5 °C 30.50 in /  1032.7 hPa WSW 5.0 mph /  8 km/h 7.0 mph /  11.3 km/h 94 % 0.00 in /  0 mm 158 W/m2
10:11 51.3 °F /  10.7 °C 49.6 °F /  9.8 °C 30.50 in /  1032.7 hPa West 7.0 mph /  11.3 km/h 9.0 mph /  14.5 km/h 94 % 0.00 in /  0 mm 56 W/m2
10:12 51.3 °F /  10.7 °C 49.6 °F /  9.8 °C 30.50 in /  1032.7 hPa West 7.0 mph /  11.3 km/h 12.0 mph /  19.3 km/h 94 % 0.00 in /  0 mm 56 W/m2
10:13 51.3 °F /  10.7 °C 49.6 °F /  9.8 °C 30.50 in /  1032.7 hPa WSW 7.0 mph /  11.3 km/h 12.0 mph /  19.3 km/h 94 % 0.00 in /  0 mm 60 W/m2
10:18 51.6 °F /  10.9 °C 49.7 °F /  9.8 °C 30.50 in /  1032.7 hPa West 7.0 mph /  11.3 km/h 10.0 mph /  16.1 km/h 93 % 0.00 in /  0 mm 114 W/m2
10:21 51.8 °F /  11 °C 49.8 °F /  9.9 °C 30.50 in /  1032.7 hPa WSW 6.0 mph /  9.7 km/h 8.0 mph /  12.9 km/h 93 % 0.00 in /  0 mm 100 W/m2
10:26 52.0 °F /  11.1 °C 49.7 °F /  9.8 °C 30.50 in /  1032.7 hPa West 6.0 mph /  9.7 km/h 9.0 mph /  14.5 km/h 92 % 0.00 in /  0 mm 88 W/m2
10:27 52.0 °F /  11.1 °C 49.7 °F /  9.8 °C 30.50 in /  1032.7 hPa West 6.0 mph /  9.7 km/h 9.0 mph /  14.5 km/h 92 % 0.00 in /  0 mm 84 W/m2
10:32 52.2 °F /  11.2 °C 49.9 °F /  9.9 °C 30.50 in /  1032.7 hPa West 6.0 mph /  9.7 km/h 8.0 mph /  12.9 km/h 92 % 0.00 in /  0 mm 74 W/m2
10:37 52.2 °F /  11.2 °C 49.6 °F /  9.8 °C 30.50 in /  1032.7 hPa West 8.0 mph /  12.9 km/h 14.0 mph /  22.5 km/h 91 % 0.00 in /  0 mm 67 W/m2
10:42 52.3 °F /  11.3 °C 49.8 °F /  9.9 °C 30.50 in /  1032.7 hPa West 9.0 mph /  14.5 km/h 13.0 mph /  20.9 km/h 91 % 0.00 in /  0 mm 91 W/m2
10:46 52.3 °F /  11.3 °C 49.8 °F /  9.9 °C 30.50 in /  1032.7 hPa WNW 9.0 mph /  14.5 km/h 14.0 mph /  22.5 km/h 91 % 0.00 in /  0 mm 114 W/m2
10:48 52.3 °F /  11.3 °C 49.8 °F /  9.9 °C 30.50 in /  1032.7 hPa WNW 8.0 mph /  12.9 km/h 11.0 mph /  17.7 km/h 91 % 0.00 in /  0 mm 123 W/m2
10:53 52.5 °F /  11.4 °C 50.0 °F /  10 °C 30.50 in /  1032.7 hPa WNW 6.0 mph /  9.7 km/h 8.0 mph /  12.9 km/h 91 % 0.00 in /  0 mm 144 W/m2
10:55 52.5 °F /  11.4 °C 50.0 °F /  10 °C 30.50 in /  1032.7 hPa West 7.0 mph /  11.3 km/h 10.0 mph /  16.1 km/h 91 % 0.00 in /  0 mm 153 W/m2
11:00 52.7 °F /  11.5 °C 50.1 °F /  10.1 °C 30.49 in /  1032.4 hPa West 6.0 mph /  9.7 km/h 10.0 mph /  16.1 km/h 91 % 0.00 in /  0 mm 176 W/m2
11:01 52.7 °F /  11.5 °C 50.1 °F /  10.1 °C 30.49 in /  1032.4 hPa West 5.0 mph /  8 km/h 8.0 mph /  12.9 km/h 91 % 0.00 in /  0 mm 192 W/m2
11:06 53.1 °F /  11.7 °C 50.5 °F /  10.3 °C 30.49 in /  1032.4 hPa West 6.0 mph /  9.7 km/h 10.0 mph /  16.1 km/h 91 % 0.00 in /  0 mm 171 W/m2
11:07 53.1 °F /  11.7 °C 50.5 °F /  10.3 °C 30.49 in /  1032.4 hPa WNW 6.0 mph /  9.7 km/h 8.0 mph /  12.9 km/h 91 % 0.00 in /  0 mm 156 W/m2
11:12 53.2 °F /  11.8 °C 50.7 °F /  10.4 °C 30.49 in /  1032.4 hPa West 6.0 mph /  9.7 km/h 8.0 mph /  12.9 km/h 91 % 0.00 in /  0 mm 100 W/m2
11:14 53.2 °F /  11.8 °C 50.4 °F /  10.2 °C 30.49 in /  1032.4 hPa WSW 6.0 mph /  9.7 km/h 9.0 mph /  14.5 km/h 90 % 0.00 in /  0 mm 79 W/m2
11:15 53.2 °F /  11.8 °C 50.4 °F /  10.2 °C 30.49 in /  1032.4 hPa WSW 6.0 mph /  9.7 km/h 9.0 mph /  14.5 km/h 90 % 0.00 in /  0 mm 76 W/m2
11:20 53.2 °F /  11.8 °C 50.1 °F /  10.1 °C 30.49 in /  1032.4 hPa West 7.0 mph /  11.3 km/h 10.0 mph /  16.1 km/h 89 % 0.00 in /  0 mm 69 W/m2
11:22 53.2 °F /  11.8 °C 50.1 °F /  10.1 °C 30.49 in /  1032.4 hPa WSW 6.0 mph /  9.7 km/h 9.0 mph /  14.5 km/h 89 % 0.00 in /  0 mm 69 W/m2
11:27 53.2 °F /  11.8 °C 50.1 °F /  10.1 °C 30.49 in /  1032.4 hPa West 9.0 mph /  14.5 km/h 13.0 mph /  20.9 km/h 89 % 0.00 in /  0 mm 72 W/m2
11:28 53.2 °F /  11.8 °C 50.1 °F /  10.1 °C 30.49 in /  1032.4 hPa West 9.0 mph /  14.5 km/h 13.0 mph /  20.9 km/h 89 % 0.00 in /  0 mm 72 W/m2
11:33 53.2 °F /  11.8 °C 50.1 °F /  10.1 °C 30.49 in /  1032.4 hPa West 8.0 mph /  12.9 km/h 12.0 mph /  19.3 km/h 89 % 0.00 in /  0 mm 76 W/m2
11:34 53.2 °F /  11.8 °C 50.1 °F /  10.1 °C 30.49 in /  1032.4 hPa West 8.0 mph /  12.9 km/h 12.0 mph /  19.3 km/h 89 % 0.00 in /  0 mm 76 W/m2
11:39 53.2 °F /  11.8 °C 50.1 °F /  10.1 °C 30.49 in /  1032.4 hPa West 6.0 mph /  9.7 km/h 11.0 mph /  17.7 km/h 89 % 0.00 in /  0 mm 76 W/m2
11:44 53.4 °F /  11.9 °C 50.3 °F /  10.2 °C 30.49 in /  1032.4 hPa West 7.0 mph /  11.3 km/h 13.0 mph /  20.9 km/h 89 % 0.00 in /  0 mm 74 W/m2
11:45 53.4 °F /  11.9 °C 50.3 °F /  10.2 °C 30.49 in /  1032.4 hPa West 9.0 mph /  14.5 km/h 13.0 mph /  20.9 km/h 89 % 0.00 in /  0 mm 74 W/m2
11:50 53.4 °F /  11.9 °C 50.3 °F /  10.2 °C 30.49 in /  1032.4 hPa West 10.0 mph /  16.1 km/h 13.0 mph /  20.9 km/h 89 % 0.00 in /  0 mm 90 W/m2
11:51 53.4 °F /  11.9 °C 50.3 °F /  10.2 °C 30.49 in /  1032.4 hPa West 10.0 mph /  16.1 km/h 13.0 mph /  20.9 km/h 89 % 0.00 in /  0 mm 90 W/m2
11:52 53.4 °F /  11.9 °C 50.3 °F /  10.2 °C 30.49 in /  1032.4 hPa West 10.0 mph /  16.1 km/h 13.0 mph /  20.9 km/h 89 % 0.00 in /  0 mm 102 W/m2
11:56 53.4 °F /  11.9 °C 50.3 °F /  10.2 °C 30.48 in /  1032.1 hPa West 9.0 mph /  14.5 km/h 14.0 mph /  22.5 km/h 89 % 0.00 in /  0 mm 207 W/m2
11:59 53.4 °F /  11.9 °C 50.3 °F /  10.2 °C 30.48 in /  1032.1 hPa West 8.0 mph /  12.9 km/h 12.0 mph /  19.3 km/h 89 % 0.00 in /  0 mm 223 W/m2
12:04 53.8 °F /  12.1 °C 50.9 °F /  10.5 °C 30.49 in /  1032.4 hPa West 8.0 mph /  12.9 km/h 11.0 mph /  17.7 km/h 90 % 0.00 in /  0 mm 149 W/m2
12:05 54.0 °F /  12.2 °C 50.8 °F /  10.4 °C 30.49 in /  1032.4 hPa West 9.0 mph /  14.5 km/h 12.0 mph /  19.3 km/h 89 % 0.00 in /  0 mm 137 W/m2
12:07 54.0 °F /  12.2 °C 50.8 °F /  10.4 °C 30.49 in /  1032.4 hPa WNW 9.0 mph /  14.5 km/h 14.0 mph /  22.5 km/h 89 % 0.00 in /  0 mm 135 W/m2
12:13 54.1 °F /  12.3 °C 50.7 °F /  10.4 °C 30.48 in /  1032.1 hPa West 7.0 mph /  11.3 km/h 11.0 mph /  17.7 km/h 88 % 0.00 in /  0 mm 236 W/m2
12:14 54.1 °F /  12.3 °C 50.7 °F /  10.4 °C 30.48 in /  1032.1 hPa WNW 7.0 mph /  11.3 km/h 12.0 mph /  19.3 km/h 88 % 0.00 in /  0 mm 248 W/m2
12:19 54.3 °F /  12.4 °C 50.8 °F /  10.4 °C 30.48 in /  1032.1 hPa West 6.0 mph /  9.7 km/h 9.0 mph /  14.5 km/h 88 % 0.00 in /  0 mm 292 W/m2
12:20 54.5 °F /  12.5 °C 51.0 °F /  10.6 °C 30.48 in /  1032.1 hPa WNW 7.0 mph /  11.3 km/h 9.0 mph /  14.5 km/h 88 % 0.00 in /  0 mm 288 W/m2
12:25 55.0 °F /  12.8 °C 51.5 °F /  10.8 °C 30.48 in /  1032.1 hPa WNW 5.0 mph /  8 km/h 12.0 mph /  19.3 km/h 88 % 0.00 in /  0 mm 243 W/m2
12:26 55.0 °F /  12.8 °C 51.5 °F /  10.8 °C 30.48 in /  1032.1 hPa WNW 7.0 mph /  11.3 km/h 11.0 mph /  17.7 km/h 88 % 0.00 in /  0 mm 163 W/m2
12:31 55.2 °F /  12.9 °C 51.4 °F /  10.8 °C 30.48 in /  1032.1 hPa WNW 10.0 mph /  16.1 km/h 18.0 mph /  29 km/h 87 % 0.00 in /  0 mm 274 W/m2
12:32 55.4 °F /  13 °C 51.6 °F /  10.9 °C 30.48 in /  1032.1 hPa WNW 10.0 mph /  16.1 km/h 18.0 mph /  29 km/h 87 % 0.00 in /  0 mm 274 W/m2
12:35 55.6 °F /  13.1 °C 51.5 °F /  10.8 °C 30.48 in /  1032.1 hPa WNW 10.0 mph /  16.1 km/h 16.0 mph /  25.7 km/h 86 % 0.00 in /  0 mm 232 W/m2
12:38 55.6 °F /  13.1 °C 51.5 °F /  10.8 °C 30.48 in /  1032.1 hPa WNW 9.0 mph /  14.5 km/h 15.0 mph /  24.1 km/h 86 % 0.00 in /  0 mm 155 W/m2
12:41 55.4 °F /  13 °C 51.0 °F /  10.6 °C 30.48 in /  1032.1 hPa West 9.0 mph /  14.5 km/h 15.0 mph /  24.1 km/h 85 % 0.00 in /  0 mm 142 W/m2
12:43 55.2 °F /  12.9 °C 51.1 °F /  10.6 °C 30.49 in /  1032.4 hPa West 9.0 mph /  14.5 km/h 13.0 mph /  20.9 km/h 86 % 0.00 in /  0 mm 171 W/m2
12:48 55.2 °F /  12.9 °C 51.1 °F /  10.6 °C 30.48 in /  1032.1 hPa West 9.0 mph /  14.5 km/h 14.0 mph /  22.5 km/h 86 % 0.00 in /  0 mm 104 W/m2
12:54 54.9 °F /  12.7 °C 50.8 °F /  10.4 °C 30.48 in /  1032.1 hPa West 12.0 mph /  19.3 km/h 19.0 mph /  30.6 km/h 86 % 0.00 in /  0 mm 102 W/m2
12:57 54.7 °F /  12.6 °C 50.6 °F /  10.3 °C 30.48 in /  1032.1 hPa West 15.0 mph /  24.1 km/h 20.0 mph /  32.2 km/h 86 % 0.00 in /  0 mm 93 W/m2
13:02 54.3 °F /  12.4 °C 50.2 °F /  10.1 °C 30.48 in /  1032.1 hPa West 12.0 mph /  19.3 km/h 18.0 mph /  29 km/h 86 % 0.00 in /  0 mm 90 W/m2
13:05 54.1 °F /  12.3 °C 50.4 °F /  10.2 °C 30.48 in /  1032.1 hPa West 12.0 mph /  19.3 km/h 19.0 mph /  30.6 km/h 87 % 0.00 in /  0 mm 79 W/m2
13:07 54.1 °F /  12.3 °C 50.4 °F /  10.2 °C 30.48 in /  1032.1 hPa West 12.0 mph /  19.3 km/h 19.0 mph /  30.6 km/h 87 % 0.00 in /  0 mm 70 W/m2
13:12 54.0 °F /  12.2 °C 50.2 °F /  10.1 °C 30.48 in /  1032.1 hPa West 12.0 mph /  19.3 km/h 18.0 mph /  29 km/h 87 % 0.00 in /  0 mm 70 W/m2
13:18 53.8 °F /  12.1 °C 50.3 °F /  10.2 °C 30.48 in /  1032.1 hPa West 10.0 mph /  16.1 km/h 15.0 mph /  24.1 km/h 88 % 0.00 in /  0 mm 58 W/m2
13:23 53.6 °F /  12 °C 50.1 °F /  10.1 °C 30.48 in /  1032.1 hPa WSW 9.0 mph /  14.5 km/h 14.0 mph /  22.5 km/h 88 % 0.00 in /  0 mm 47 W/m2
13:28 53.4 °F /  11.9 °C 50.3 °F /  10.2 °C 30.48 in /  1032.1 hPa WSW 7.0 mph /  11.3 km/h 11.0 mph /  17.7 km/h 89 % 0.00 in /  0 mm 42 W/m2
13:29 53.4 °F /  11.9 °C 50.3 °F /  10.2 °C 30.48 in /  1032.1 hPa WSW 7.0 mph /  11.3 km/h 11.0 mph /  17.7 km/h 89 % 0.00 in /  0 mm 42 W/m2
13:34 53.4 °F /  11.9 °C 50.3 °F /  10.2 °C 30.47 in /  1031.7 hPa WSW 6.0 mph /  9.7 km/h 8.0 mph /  12.9 km/h 89 % 0.00 in /  0 mm 46 W/m2
13:35 53.4 °F /  11.9 °C 50.3 °F /  10.2 °C 30.47 in /  1031.7 hPa WSW 6.0 mph /  9.7 km/h 9.0 mph /  14.5 km/h 89 % 0.00 in /  0 mm 47 W/m2
13:40 53.4 °F /  11.9 °C 50.3 °F /  10.2 °C 30.47 in /  1031.7 hPa WSW 6.0 mph /  9.7 km/h 9.0 mph /  14.5 km/h 89 % 0.00 in /  0 mm 47 W/m2
13:42 53.4 °F /  11.9 °C 50.3 °F /  10.2 °C 30.47 in /  1031.7 hPa WSW 6.0 mph /  9.7 km/h 9.0 mph /  14.5 km/h 89 % 0.00 in /  0 mm 46 W/m2
13:43 53.2 °F /  11.8 °C 50.1 °F /  10.1 °C 30.47 in /  1031.7 hPa WSW 6.0 mph /  9.7 km/h 8.0 mph /  12.9 km/h 89 % 0.00 in /  0 mm 46 W/m2
13:47 53.2 °F /  11.8 °C 50.1 °F /  10.1 °C 30.47 in /  1031.7 hPa WSW 7.0 mph /  11.3 km/h 10.0 mph /  16.1 km/h 89 % 0.00 in /  0 mm 53 W/m2
13:50 53.2 °F /  11.8 °C 50.1 °F /  10.1 °C 30.47 in /  1031.7 hPa WSW 6.0 mph /  9.7 km/h 10.0 mph /  16.1 km/h 89 % 0.00 in /  0 mm 53 W/m2
13:52 53.2 °F /  11.8 °C 50.4 °F /  10.2 °C 30.47 in /  1031.7 hPa WSW 6.0 mph /  9.7 km/h 9.0 mph /  14.5 km/h 90 % 0.00 in /  0 mm 53 W/m2
13:57 53.2 °F /  11.8 °C 50.4 °F /  10.2 °C 30.48 in /  1032.1 hPa West 9.0 mph /  14.5 km/h 11.0 mph /  17.7 km/h 90 % 0.00 in /  0 mm 44 W/m2
13:59 53.2 °F /  11.8 °C 50.4 °F /  10.2 °C 30.48 in /  1032.1 hPa West 6.0 mph /  9.7 km/h 11.0 mph /  17.7 km/h 90 % 0.00 in /  0 mm 44 W/m2
14:04 53.2 °F /  11.8 °C 50.1 °F /  10.1 °C 30.48 in /  1032.1 hPa WSW 7.0 mph /  11.3 km/h 12.0 mph /  19.3 km/h 89 % 0.00 in /  0 mm 40 W/m2
14:06 53.2 °F /  11.8 °C 50.4 °F /  10.2 °C 30.48 in /  1032.1 hPa WSW 6.0 mph /  9.7 km/h 11.0 mph /  17.7 km/h 90 % 0.00 in /  0 mm 42 W/m2
14:11 53.2 °F /  11.8 °C 50.4 °F /  10.2 °C 30.48 in /  1032.1 hPa West 7.0 mph /  11.3 km/h 10.0 mph /  16.1 km/h 90 % 0.00 in /  0 mm 37 W/m2
14:14 53.2 °F /  11.8 °C 50.4 °F /  10.2 °C 30.48 in /  1032.1 hPa West 7.0 mph /  11.3 km/h 8.0 mph /  12.9 km/h 90 % 0.00 in /  0 mm 30 W/m2
14:18 53.2 °F /  11.8 °C 50.1 °F /  10.1 °C 30.48 in /  1032.1 hPa West 8.0 mph /  12.9 km/h 11.0 mph /  17.7 km/h 89 % 0.00 in /  0 mm 26 W/m2
14:19 53.2 °F /  11.8 °C 50.1 °F /  10.1 °C 30.49 in /  1032.4 hPa WNW 7.0 mph /  11.3 km/h 9.0 mph /  14.5 km/h 89 % 0.00 in /  0 mm 23 W/m2
14:24 53.2 °F /  11.8 °C 50.1 °F /  10.1 °C 30.49 in /  1032.4 hPa WNW 10.0 mph /  16.1 km/h 16.0 mph /  25.7 km/h 89 % 0.00 in /  0 mm 19 W/m2
14:25 53.2 °F /  11.8 °C 50.1 °F /  10.1 °C 30.49 in /  1032.4 hPa WNW 10.0 mph /  16.1 km/h 16.0 mph /  25.7 km/h 89 % 0.00 in /  0 mm 19 W/m2
14:30 53.2 °F /  11.8 °C 50.4 °F /  10.2 °C 30.49 in /  1032.4 hPa WNW 10.0 mph /  16.1 km/h 14.0 mph /  22.5 km/h 90 % 0.00 in /  0 mm 18 W/m2
14:32 53.2 °F /  11.8 °C 50.4 °F /  10.2 °C 30.49 in /  1032.4 hPa WNW 10.0 mph /  16.1 km/h 15.0 mph /  24.1 km/h 90 % 0.00 in /  0 mm 16 W/m2
14:37 53.1 °F /  11.7 °C 50.2 °F /  10.1 °C 30.49 in /  1032.4 hPa West 9.0 mph /  14.5 km/h 15.0 mph /  24.1 km/h 90 % 0.00 in /  0 mm 14 W/m2
14:42 53.1 °F /  11.7 °C 50.2 °F /  10.1 °C 30.49 in /  1032.4 hPa WNW 7.0 mph /  11.3 km/h 10.0 mph /  16.1 km/h 90 % 0.00 in /  0 mm 14 W/m2
14:47 52.9 °F /  11.6 °C 50.0 °F /  10 °C 30.49 in /  1032.4 hPa WNW 9.0 mph /  14.5 km/h 13.0 mph /  20.9 km/h 90 % 0.00 in /  0 mm 14 W/m2
14:49 52.9 °F /  11.6 °C 50.0 °F /  10 °C 30.49 in /  1032.4 hPa WNW 8.0 mph /  12.9 km/h 13.0 mph /  20.9 km/h 90 % 0.00 in /  0 mm 18 W/m2
14:54 52.9 °F /  11.6 °C 50.0 °F /  10 °C 30.49 in /  1032.4 hPa WNW 6.0 mph /  9.7 km/h 9.0 mph /  14.5 km/h 90 % 0.00 in /  0 mm 14 W/m2
14:55 52.9 °F /  11.6 °C 50.0 °F /  10 °C 30.50 in /  1032.7 hPa WNW 7.0 mph /  11.3 km/h 10.0 mph /  16.1 km/h 90 % 0.00 in /  0 mm 14 W/m2
15:00 52.7 °F /  11.5 °C 50.1 °F /  10.1 °C 30.50 in /  1032.7 hPa WNW 5.0 mph /  8 km/h 10.0 mph /  16.1 km/h 91 % 0.00 in /  0 mm 12 W/m2
15:05 52.5 °F /  11.4 °C 50.0 °F /  10 °C 30.49 in /  1032.4 hPa WNW 6.0 mph /  9.7 km/h 10.0 mph /  16.1 km/h 91 % 0.00 in /  0 mm 14 W/m2
15:10 52.5 °F /  11.4 °C 50.0 °F /  10 °C 30.49 in /  1032.4 hPa WNW 6.0 mph /  9.7 km/h 10.0 mph /  16.1 km/h 91 % 0.00 in /  0 mm 16 W/m2
15:14 52.5 °F /  11.4 °C 50.0 °F /  10 °C 30.50 in /  1032.7 hPa WNW 3.0 mph /  4.8 km/h 6.0 mph /  9.7 km/h 91 % 0.00 in /  0 mm 14 W/m2
15:15 52.5 °F /  11.4 °C 50.0 °F /  10 °C 30.50 in /  1032.7 hPa NW 2.0 mph /  3.2 km/h 5.0 mph /  8 km/h 91 % 0.00 in /  0 mm 14 W/m2
15:20 52.3 °F /  11.3 °C 49.8 °F /  9.9 °C 30.50 in /  1032.7 hPa West 2.0 mph /  3.2 km/h 6.0 mph /  9.7 km/h 91 % 0.00 in /  0 mm 12 W/m2
15:25 52.3 °F /  11.3 °C 49.8 °F /  9.9 °C 30.50 in /  1032.7 hPa WNW 5.0 mph /  8 km/h 9.0 mph /  14.5 km/h 91 % 0.00 in /  0 mm 11 W/m2
15:27 52.2 °F /  11.2 °C 49.6 °F /  9.8 °C 30.50 in /  1032.7 hPa WNW 6.0 mph /  9.7 km/h 10.0 mph /  16.1 km/h 91 % 0.00 in /  0 mm 11 W/m2
15:32 52.2 °F /  11.2 °C 49.6 °F /  9.8 °C 30.51 in /  1033.1 hPa WNW 7.0 mph /  11.3 km/h 11.0 mph /  17.7 km/h 91 % 0.00 in /  0 mm 7 W/m2
15:33 52.2 °F /  11.2 °C 49.6 °F /  9.8 °C 30.51 in /  1033.1 hPa WNW 6.0 mph /  9.7 km/h 10.0 mph /  16.1 km/h 91 % 0.00 in /  0 mm 7 W/m2
15:34 52.2 °F /  11.2 °C 49.6 °F /  9.8 °C 30.51 in /  1033.1 hPa WNW 7.0 mph /  11.3 km/h 11.0 mph /  17.7 km/h 91 % 0.00 in /  0 mm 7 W/m2
15:38 52.0 °F /  11.1 °C 49.4 °F /  9.7 °C 30.51 in /  1033.1 hPa WNW 6.0 mph /  9.7 km/h 8.0 mph /  12.9 km/h 91 % 0.00 in /  0 mm 5 W/m2
15:40 52.0 °F /  11.1 °C 49.4 °F /  9.7 °C 30.51 in /  1033.1 hPa WNW 6.0 mph /  9.7 km/h 9.0 mph /  14.5 km/h 91 % 0.00 in /  0 mm 0 W/m2
15:45 52.0 °F /  11.1 °C 49.4 °F /  9.7 °C 30.51 in /  1033.1 hPa WNW 5.0 mph /  8 km/h 8.0 mph /  12.9 km/h 91 % 0.00 in /  0 mm 0 W/m2
15:47 52.0 °F /  11.1 °C 49.4 °F /  9.7 °C 30.51 in /  1033.1 hPa WNW 6.0 mph /  9.7 km/h 10.0 mph /  16.1 km/h 91 % 0.00 in /  0 mm 0 W/m2
15:48 52.0 °F /  11.1 °C 49.4 °F /  9.7 °C 30.51 in /  1033.1 hPa WNW 6.0 mph /  9.7 km/h 10.0 mph /  16.1 km/h 91 % 0.00 in /  0 mm 0 W/m2
15:53 51.8 °F /  11 °C 49.3 °F /  9.6 °C 30.51 in /  1033.1 hPa WNW 6.0 mph /  9.7 km/h 10.0 mph /  16.1 km/h 91 % 0.00 in /  0 mm 0 W/m2
15:54 52.0 °F /  11.1 °C 49.4 °F /  9.7 °C 30.51 in /  1033.1 hPa WNW 6.0 mph /  9.7 km/h 10.0 mph /  16.1 km/h 91 % 0.00 in /  0 mm 0 W/m2
15:59 51.6 °F /  10.9 °C 49.1 °F /  9.5 °C 30.51 in /  1033.1 hPa WNW 6.0 mph /  9.7 km/h 11.0 mph /  17.7 km/h 91 % 0.00 in /  0 mm 0 W/m2
16:01 51.6 °F /  10.9 °C 49.4 °F /  9.7 °C 30.51 in /  1033.1 hPa WNW 7.0 mph /  11.3 km/h 11.0 mph /  17.7 km/h 92 % 0.00 in /  0 mm 0 W/m2
16:07 51.6 °F /  10.9 °C 49.4 °F /  9.7 °C 30.51 in /  1033.1 hPa WNW 6.0 mph /  9.7 km/h 8.0 mph /  12.9 km/h 92 % 0.00 in /  0 mm 0 W/m2
16:11 51.6 °F /  10.9 °C 49.4 °F /  9.7 °C 30.51 in /  1033.1 hPa West 6.0 mph /  9.7 km/h 9.0 mph /  14.5 km/h 92 % 0.00 in /  0 mm 0 W/m2
16:12 51.6 °F /  10.9 °C 49.4 °F /  9.7 °C 30.51 in /  1033.1 hPa WNW 6.0 mph /  9.7 km/h 9.0 mph /  14.5 km/h 92 % 0.00 in /  0 mm 0 W/m2
16:17 51.6 °F /  10.9 °C 49.4 °F /  9.7 °C 30.51 in /  1033.1 hPa WNW 6.0 mph /  9.7 km/h 8.0 mph /  12.9 km/h 92 % 0.00 in /  0 mm 0 W/m2
16:19 51.6 °F /  10.9 °C 49.4 °F /  9.7 °C 30.51 in /  1033.1 hPa WNW 6.0 mph /  9.7 km/h 8.0 mph /  12.9 km/h 92 % 0.00 in /  0 mm 0 W/m2
16:24 51.6 °F /  10.9 °C 49.4 °F /  9.7 °C 30.51 in /  1033.1 hPa West 5.0 mph /  8 km/h 8.0 mph /  12.9 km/h 92 % 0.00 in /  0 mm 0 W/m2
16:29 51.6 °F /  10.9 °C 49.4 °F /  9.7 °C 30.51 in /  1033.1 hPa West 4.0 mph /  6.4 km/h 6.0 mph /  9.7 km/h 92 % 0.00 in /  0 mm 0 W/m2
16:32 51.6 °F /  10.9 °C 49.4 °F /  9.7 °C 30.51 in /  1033.1 hPa West 4.0 mph /  6.4 km/h 7.0 mph /  11.3 km/h 92 % 0.00 in /  0 mm 0 W/m2
16:37 51.4 °F /  10.8 °C 49.2 °F /  9.6 °C 30.51 in /  1033.1 hPa West 1.0 mph /  1.6 km/h 3.0 mph /  4.8 km/h 92 % 0.00 in /  0 mm 0 W/m2
16:39 51.4 °F /  10.8 °C 49.2 °F /  9.6 °C 30.51 in /  1033.1 hPa West 3.0 mph /  4.8 km/h 5.0 mph /  8 km/h 92 % 0.00 in /  0 mm 0 W/m2
16:44 51.4 °F /  10.8 °C 49.2 °F /  9.6 °C 30.52 in /  1033.4 hPa WSW 3.0 mph /  4.8 km/h 5.0 mph /  8 km/h 92 % 0.00 in /  0 mm 0 W/m2
16:45 51.4 °F /  10.8 °C 49.2 °F /  9.6 °C 30.52 in /  1033.4 hPa WSW 3.0 mph /  4.8 km/h 5.0 mph /  8 km/h 92 % 0.00 in /  0 mm 0 W/m2
16:50 51.4 °F /  10.8 °C 49.2 °F /  9.6 °C 30.52 in /  1033.4 hPa West 1.0 mph /  1.6 km/h 4.0 mph /  6.4 km/h 92 % 0.00 in /  0 mm 0 W/m2
16:55 51.4 °F /  10.8 °C 49.2 °F /  9.6 °C 30.52 in /  1033.4 hPa Calm   3.0 mph /  4.8 km/h 92 % 0.00 in /  0 mm 0 W/m2
16:56 51.4 °F /  10.8 °C 49.2 °F /  9.6 °C 30.52 in /  1033.4 hPa Calm   2.0 mph /  3.2 km/h 92 % 0.00 in /  0 mm 0 W/m2
17:01 51.3 °F /  10.7 °C 49.0 °F /  9.4 °C 30.52 in /  1033.4 hPa WSW 2.0 mph /  3.2 km/h 4.0 mph /  6.4 km/h 92 % 0.00 in /  0 mm 0 W/m2
17:03 51.3 °F /  10.7 °C 49.0 °F /  9.4 °C 30.52 in /  1033.4 hPa WSW 2.0 mph /  3.2 km/h 8.0 mph /  12.9 km/h 92 % 0.00 in /  0 mm 0 W/m2
17:05 51.3 °F /  10.7 °C 49.3 °F /  9.6 °C 30.52 in /  1033.4 hPa WSW 3.0 mph /  4.8 km/h 8.0 mph /  12.9 km/h 93 % 0.00 in /  0 mm 0 W/m2
17:10 51.3 °F /  10.7 °C 49.3 °F /  9.6 °C 30.52 in /  1033.4 hPa West 3.0 mph /  4.8 km/h 6.0 mph /  9.7 km/h 93 % 0.00 in /  0 mm 0 W/m2
17:11 51.3 °F /  10.7 °C 49.0 °F /  9.4 °C 30.52 in /  1033.4 hPa West 4.0 mph /  6.4 km/h 6.0 mph /  9.7 km/h 92 % 0.00 in /  0 mm 0 W/m2
17:16 51.3 °F /  10.7 °C 49.0 °F /  9.4 °C 30.53 in /  1033.7 hPa WNW 2.0 mph /  3.2 km/h 5.0 mph /  8 km/h 92 % 0.00 in /  0 mm 0 W/m2
17:19 51.1 °F /  10.6 °C 48.8 °F /  9.3 °C 30.53 in /  1033.7 hPa WNW 2.0 mph /  3.2 km/h 5.0 mph /  8 km/h 92 % 0.00 in /  0 mm 0 W/m2
17:21 51.1 °F /  10.6 °C 48.8 °F /  9.3 °C 30.53 in /  1033.7 hPa WNW 4.0 mph /  6.4 km/h 6.0 mph /  9.7 km/h 92 % 0.00 in /  0 mm 0 W/m2
17:26 51.1 °F /  10.6 °C 49.1 °F /  9.5 °C 30.53 in /  1033.7 hPa West 3.0 mph /  4.8 km/h 5.0 mph /  8 km/h 93 % 0.00 in /  0 mm 0 W/m2
17:31 51.1 °F /  10.6 °C 48.8 °F /  9.3 °C 30.52 in /  1033.4 hPa West 1.0 mph /  1.6 km/h 5.0 mph /  8 km/h 92 % 0.00 in /  0 mm 0 W/m2
17:32 51.1 °F /  10.6 °C 48.8 °F /  9.3 °C 30.52 in /  1033.4 hPa West 1.0 mph /  1.6 km/h 5.0 mph /  8 km/h 92 % 0.00 in /  0 mm 0 W/m2
17:37 51.1 °F /  10.6 °C 48.8 °F /  9.3 °C 30.52 in /  1033.4 hPa West 3.0 mph /  4.8 km/h 6.0 mph /  9.7 km/h 92 % 0.00 in /  0 mm 0 W/m2
17:38 50.9 °F /  10.5 °C 48.7 °F /  9.3 °C 30.52 in /  1033.4 hPa West 2.0 mph /  3.2 km/h 6.0 mph /  9.7 km/h 92 % 0.00 in /  0 mm 0 W/m2
17:42 50.7 °F /  10.4 °C 48.5 °F /  9.2 °C 30.52 in /  1033.4 hPa West 4.0 mph /  6.4 km/h 6.0 mph /  9.7 km/h 92 % 0.00 in /  0 mm 0 W/m2
17:44 50.7 °F /  10.4 °C 48.5 °F /  9.2 °C 30.52 in /  1033.4 hPa West 4.0 mph /  6.4 km/h 6.0 mph /  9.7 km/h 92 % 0.00 in /  0 mm 0 W/m2
17:49 50.7 °F /  10.4 °C 48.8 °F /  9.3 °C 30.52 in /  1033.4 hPa WNW 3.0 mph /  4.8 km/h 6.0 mph /  9.7 km/h 93 % 0.00 in /  0 mm 0 W/m2
17:51 50.5 °F /  10.3 °C 48.6 °F /  9.2 °C 30.52 in /  1033.4 hPa WNW 2.0 mph /  3.2 km/h 5.0 mph /  8 km/h 93 % 0.00 in /  0 mm 0 W/m2
17:55 50.5 °F /  10.3 °C 48.6 °F /  9.2 °C 30.53 in /  1033.7 hPa West 1.0 mph /  1.6 km/h 4.0 mph /  6.4 km/h 93 % 0.00 in /  0 mm 0 W/m2
17:58 50.5 °F /  10.3 °C 48.6 °F /  9.2 °C 30.53 in /  1033.7 hPa Calm   2.0 mph /  3.2 km/h 93 % 0.00 in /  0 mm 0 W/m2
18:00 50.5 °F /  10.3 °C 48.6 °F /  9.2 °C 30.53 in /  1033.7 hPa West 1.0 mph /  1.6 km/h 2.0 mph /  3.2 km/h 93 % 0.00 in /  0 mm 0 W/m2
18:03 50.5 °F /  10.3 °C 48.6 °F /  9.2 °C 30.53 in /  1033.7 hPa Calm     93 % 0.00 in /  0 mm 0 W/m2
18:06 50.5 °F /  10.3 °C 48.6 °F /  9.2 °C 30.53 in /  1033.7 hPa Calm     93 % 0.00 in /  0 mm 0 W/m2
18:09 50.5 °F /  10.3 °C 48.6 °F /  9.2 °C 30.52 in /  1033.4 hPa WSW 2.0 mph /  3.2 km/h 5.0 mph /  8 km/h 93 % 0.00 in /  0 mm 0 W/m2
18:14 50.5 °F /  10.3 °C 48.6 °F /  9.2 °C 30.52 in /  1033.4 hPa WSW 2.0 mph /  3.2 km/h 5.0 mph /  8 km/h 93 % 0.00 in /  0 mm 0 W/m2
18:15 50.4 °F /  10.2 °C 48.4 °F /  9.1 °C 30.52 in /  1033.4 hPa WSW 2.0 mph /  3.2 km/h 5.0 mph /  8 km/h 93 % 0.00 in /  0 mm 0 W/m2
18:17 50.4 °F /  10.2 °C 48.4 °F /  9.1 °C 30.52 in /  1033.4 hPa WSW 4.0 mph /  6.4 km/h 7.0 mph /  11.3 km/h 93 % 0.00 in /  0 mm 0 W/m2
18:22 50.5 °F /  10.3 °C 48.6 °F /  9.2 °C 30.52 in /  1033.4 hPa WSW 7.0 mph /  11.3 km/h 9.0 mph /  14.5 km/h 93 % 0.00 in /  0 mm 0 W/m2
18:23 50.5 °F /  10.3 °C 48.6 °F /  9.2 °C 30.52 in /  1033.4 hPa WSW 7.0 mph /  11.3 km/h 10.0 mph /  16.1 km/h 93 % 0.00 in /  0 mm 0 W/m2
18:24 50.5 °F /  10.3 °C 48.6 °F /  9.2 °C 30.52 in /  1033.4 hPa WSW 7.0 mph /  11.3 km/h 10.0 mph /  16.1 km/h 93 % 0.00 in /  0 mm 0 W/m2
18:28 50.5 °F /  10.3 °C 48.6 °F /  9.2 °C 30.52 in /  1033.4 hPa West 6.0 mph /  9.7 km/h 10.0 mph /  16.1 km/h 93 % 0.00 in /  0 mm 0 W/m2
18:33 50.5 °F /  10.3 °C 48.6 °F /  9.2 °C 30.52 in /  1033.4 hPa West 5.0 mph /  8 km/h 7.0 mph /  11.3 km/h 93 % 0.00 in /  0 mm 0 W/m2
18:35 50.5 °F /  10.3 °C 48.6 °F /  9.2 °C 30.52 in /  1033.4 hPa WNW 7.0 mph /  11.3 km/h 11.0 mph /  17.7 km/h 93 % 0.00 in /  0 mm 0 W/m2
18:36 50.5 °F /  10.3 °C 48.6 °F /  9.2 °C 30.52 in /  1033.4 hPa WNW 6.0 mph /  9.7 km/h 11.0 mph /  17.7 km/h 93 % 0.00 in /  0 mm 0 W/m2
18:41 50.5 °F /  10.3 °C 48.6 °F /  9.2 °C 30.52 in /  1033.4 hPa WNW 8.0 mph /  12.9 km/h 12.0 mph /  19.3 km/h 93 % 0.00 in /  0 mm 0 W/m2
18:46 50.5 °F /  10.3 °C 48.6 °F /  9.2 °C 30.52 in /  1033.4 hPa WNW 5.0 mph /  8 km/h 9.0 mph /  14.5 km/h 93 % 0.00 in /  0 mm 0 W/m2
18:51 50.4 °F /  10.2 °C 48.4 °F /  9.1 °C 30.52 in /  1033.4 hPa WNW 7.0 mph /  11.3 km/h 10.0 mph /  16.1 km/h 93 % 0.00 in /  0 mm 0 W/m2
18:52 50.4 °F /  10.2 °C 48.4 °F /  9.1 °C 30.52 in /  1033.4 hPa WNW 7.0 mph /  11.3 km/h 10.0 mph /  16.1 km/h 93 % 0.00 in /  0 mm 0 W/m2
18:57 50.4 °F /  10.2 °C 48.4 °F /  9.1 °C 30.52 in /  1033.4 hPa WNW 5.0 mph /  8 km/h 7.0 mph /  11.3 km/h 93 % 0.00 in /  0 mm 0 W/m2
19:00 50.4 °F /  10.2 °C 48.4 °F /  9.1 °C 30.52 in /  1033.4 hPa WNW 5.0 mph /  8 km/h 8.0 mph /  12.9 km/h 93 % 0.00 in /  0 mm 0 W/m2
19:04 50.4 °F /  10.2 °C 48.4 °F /  9.1 °C 30.52 in /  1033.4 hPa NW 3.0 mph /  4.8 km/h 6.0 mph /  9.7 km/h 93 % 0.00 in /  0 mm 0 W/m2
19:07 50.4 °F /  10.2 °C 48.4 °F /  9.1 °C 30.52 in /  1033.4 hPa WNW 6.0 mph /  9.7 km/h 9.0 mph /  14.5 km/h 93 % 0.00 in /  0 mm 0 W/m2
19:12 50.2 °F /  10.1 °C 48.2 °F /  9 °C 30.53 in /  1033.7 hPa WNW 5.0 mph /  8 km/h 8.0 mph /  12.9 km/h 93 % 0.00 in /  0 mm 0 W/m2
19:13 50.2 °F /  10.1 °C 48.2 °F /  9 °C 30.53 in /  1033.7 hPa WNW 4.0 mph /  6.4 km/h 8.0 mph /  12.9 km/h 93 % 0.00 in /  0 mm 0 W/m2
19:18 50.2 °F /  10.1 °C 48.2 °F /  9 °C 30.53 in /  1033.7 hPa WNW 6.0 mph /  9.7 km/h 8.0 mph /  12.9 km/h 93 % 0.00 in /  0 mm 0 W/m2
19:23 50.2 °F /  10.1 °C 48.2 °F /  9 °C 30.53 in /  1033.7 hPa NW 6.0 mph /  9.7 km/h 9.0 mph /  14.5 km/h 93 % 0.00 in /  0 mm 0 W/m2
19:25 50.2 °F /  10.1 °C 48.2 °F /  9 °C 30.53 in /  1033.7 hPa WNW 5.0 mph /  8 km/h 8.0 mph /  12.9 km/h 93 % 0.00 in /  0 mm 0 W/m2
19:30 50.2 °F /  10.1 °C 48.5 °F /  9.2 °C 30.53 in /  1033.7 hPa WNW 7.0 mph /  11.3 km/h 9.0 mph /  14.5 km/h 94 % 0.00 in /  0 mm 0 W/m2
19:31 50.2 °F /  10.1 °C 48.5 °F /  9.2 °C 30.53 in /  1033.7 hPa WNW 7.0 mph /  11.3 km/h 10.0 mph /  16.1 km/h 94 % 0.00 in /  0 mm 0 W/m2
19:36 50.2 °F /  10.1 °C 48.2 °F /  9 °C 30.53 in /  1033.7 hPa WNW 5.0 mph /  8 km/h 8.0 mph /  12.9 km/h 93 % 0.00 in /  0 mm 0 W/m2
19:37 50.0 °F /  10 °C 48.1 °F /  8.9 °C 30.53 in /  1033.7 hPa WNW 5.0 mph /  8 km/h 8.0 mph /  12.9 km/h 93 % 0.00 in /  0 mm 0 W/m2
19:39 50.0 °F /  10 °C 48.1 °F /  8.9 °C 30.53 in /  1033.7 hPa WNW 5.0 mph /  8 km/h 8.0 mph /  12.9 km/h 93 % 0.00 in /  0 mm 0 W/m2
19:42 50.0 °F /  10 °C 48.3 °F /  9.1 °C 30.53 in /  1033.7 hPa WNW 4.0 mph /  6.4 km/h 6.0 mph /  9.7 km/h 94 % 0.00 in /  0 mm 0 W/m2
19:48 50.0 °F /  10 °C 48.1 °F /  8.9 °C 30.53 in /  1033.7 hPa WNW 6.0 mph /  9.7 km/h 8.0 mph /  12.9 km/h 93 % 0.00 in /  0 mm 0 W/m2
19:50 50.0 °F /  10 °C 48.3 °F /  9.1 °C 30.53 in /  1033.7 hPa WNW 6.0 mph /  9.7 km/h 9.0 mph /  14.5 km/h 94 % 0.00 in /  0 mm 0 W/m2
19:55 50.0 °F /  10 °C 48.3 °F /  9.1 °C 30.53 in /  1033.7 hPa WNW 7.0 mph /  11.3 km/h 9.0 mph /  14.5 km/h 94 % 0.00 in /  0 mm 0 W/m2
20:00 50.2 °F /  10.1 °C 48.5 °F /  9.2 °C 30.53 in /  1033.7 hPa WNW 7.0 mph /  11.3 km/h 14.0 mph /  22.5 km/h 94 % 0.00 in /  0 mm 0 W/m2
20:02 50.2 °F /  10.1 °C 48.2 °F /  9 °C 30.53 in /  1033.7 hPa WNW 8.0 mph /  12.9 km/h 12.0 mph /  19.3 km/h 93 % 0.00 in /  0 mm 0 W/m2
20:06 50.2 °F /  10.1 °C 48.2 °F /  9 °C 30.53 in /  1033.7 hPa NW 7.0 mph /  11.3 km/h 11.0 mph /  17.7 km/h 93 % 0.00 in /  0 mm 0 W/m2
20:12 50.2 °F /  10.1 °C 48.2 °F /  9 °C 30.53 in /  1033.7 hPa WNW 9.0 mph /  14.5 km/h 13.0 mph /  20.9 km/h 93 % 0.00 in /  0 mm 0 W/m2
20:17 50.4 °F /  10.2 °C 48.4 °F /  9.1 °C 30.53 in /  1033.7 hPa WNW 7.0 mph /  11.3 km/h 11.0 mph /  17.7 km/h 93 % 0.00 in /  0 mm 0 W/m2
20:18 50.4 °F /  10.2 °C 48.4 °F /  9.1 °C 30.53 in /  1033.7 hPa WNW 8.0 mph /  12.9 km/h 11.0 mph /  17.7 km/h 93 % 0.00 in /  0 mm 0 W/m2
20:20 50.4 °F /  10.2 °C 48.4 °F /  9.1 °C 30.53 in /  1033.7 hPa WNW 7.0 mph /  11.3 km/h 13.0 mph /  20.9 km/h 93 % 0.00 in /  0 mm 0 W/m2
20:25 50.4 °F /  10.2 °C 48.1 °F /  8.9 °C 30.53 in /  1033.7 hPa WNW 9.0 mph /  14.5 km/h 13.0 mph /  20.9 km/h 92 % 0.00 in /  0 mm 0 W/m2
20:26 50.4 °F /  10.2 °C 48.1 °F /  8.9 °C 30.53 in /  1033.7 hPa WNW 9.0 mph /  14.5 km/h 13.0 mph /  20.9 km/h 92 % 0.00 in /  0 mm 0 W/m2
20:28 50.4 °F /  10.2 °C 48.1 °F /  8.9 °C 30.53 in /  1033.7 hPa WNW 8.0 mph /  12.9 km/h 12.0 mph /  19.3 km/h 92 % 0.00 in /  0 mm 0 W/m2
20:33 50.4 °F /  10.2 °C 48.1 °F /  8.9 °C 30.53 in /  1033.7 hPa WNW 7.0 mph /  11.3 km/h 10.0 mph /  16.1 km/h 92 % 0.00 in /  0 mm 0 W/m2
20:38 50.4 °F /  10.2 °C 48.1 °F /  8.9 °C 30.53 in /  1033.7 hPa WNW 6.0 mph /  9.7 km/h 9.0 mph /  14.5 km/h 92 % 0.00 in /  0 mm 0 W/m2
20:41 50.4 °F /  10.2 °C 48.1 °F /  8.9 °C 30.53 in /  1033.7 hPa WNW 7.0 mph /  11.3 km/h 10.0 mph /  16.1 km/h 92 % 0.00 in /  0 mm 0 W/m2
20:46 50.4 °F /  10.2 °C 47.8 °F /  8.8 °C 30.53 in /  1033.7 hPa WNW 6.0 mph /  9.7 km/h 8.0 mph /  12.9 km/h 91 % 0.00 in /  0 mm 0 W/m2
20:47 50.4 °F /  10.2 °C 47.8 °F /  8.8 °C 30.53 in /  1033.7 hPa WNW 6.0 mph /  9.7 km/h 8.0 mph /  12.9 km/h 91 % 0.00 in /  0 mm 0 W/m2
20:52 50.2 °F /  10.1 °C 47.7 °F /  8.7 °C 30.54 in /  1034.1 hPa WNW 7.0 mph /  11.3 km/h 10.0 mph /  16.1 km/h 91 % 0.00 in /  0 mm 0 W/m2
20:57 50.2 °F /  10.1 °C 47.7 °F /  8.7 °C 30.54 in /  1034.1 hPa WNW 7.0 mph /  11.3 km/h 10.0 mph /  16.1 km/h 91 % 0.00 in /  0 mm 0 W/m2
20:58 50.2 °F /  10.1 °C 47.7 °F /  8.7 °C 30.54 in /  1034.1 hPa WNW 7.0 mph /  11.3 km/h 10.0 mph /  16.1 km/h 91 % 0.00 in /  0 mm 0 W/m2
21:03 50.2 °F /  10.1 °C 47.7 °F /  8.7 °C 30.54 in /  1034.1 hPa WNW 7.0 mph /  11.3 km/h 11.0 mph /  17.7 km/h 91 % 0.00 in /  0 mm 0 W/m2
21:05 50.2 °F /  10.1 °C 47.7 °F /  8.7 °C 30.54 in /  1034.1 hPa WNW 6.0 mph /  9.7 km/h 9.0 mph /  14.5 km/h 91 % 0.00 in /  0 mm 0 W/m2
21:08 50.2 °F /  10.1 °C 47.7 °F /  8.7 °C 30.54 in /  1034.1 hPa WNW 8.0 mph /  12.9 km/h 11.0 mph /  17.7 km/h 91 % 0.00 in /  0 mm 0 W/m2
21:14 50.4 °F /  10.2 °C 47.8 °F /  8.8 °C 30.54 in /  1034.1 hPa WNW 7.0 mph /  11.3 km/h 10.0 mph /  16.1 km/h 91 % 0.00 in /  0 mm 0 W/m2
21:16 50.4 °F /  10.2 °C 47.8 °F /  8.8 °C 30.54 in /  1034.1 hPa WNW 7.0 mph /  11.3 km/h 12.0 mph /  19.3 km/h 91 % 0.00 in /  0 mm 0 W/m2
21:21 50.4 °F /  10.2 °C 47.5 °F /  8.6 °C 30.54 in /  1034.1 hPa WNW 6.0 mph /  9.7 km/h 9.0 mph /  14.5 km/h 90 % 0.00 in /  0 mm 0 W/m2
21:23 50.4 °F /  10.2 °C 47.5 °F /  8.6 °C 30.54 in /  1034.1 hPa WNW 6.0 mph /  9.7 km/h 9.0 mph /  14.5 km/h 90 % 0.00 in /  0 mm 0 W/m2
21:27 50.4 °F /  10.2 °C 47.5 °F /  8.6 °C 30.54 in /  1034.1 hPa WNW 5.0 mph /  8 km/h 8.0 mph /  12.9 km/h 90 % 0.00 in /  0 mm 0 W/m2
21:29 50.4 °F /  10.2 °C 47.5 °F /  8.6 °C 30.54 in /  1034.1 hPa WNW 6.0 mph /  9.7 km/h 9.0 mph /  14.5 km/h 90 % 0.00 in /  0 mm 0 W/m2
21:34 50.4 °F /  10.2 °C 47.5 °F /  8.6 °C 30.54 in /  1034.1 hPa NW 7.0 mph /  11.3 km/h 9.0 mph /  14.5 km/h 90 % 0.00 in /  0 mm 0 W/m2
21:35 50.4 °F /  10.2 °C 47.5 °F /  8.6 °C 30.54 in /  1034.1 hPa NW 7.0 mph /  11.3 km/h 9.0 mph /  14.5 km/h 90 % 0.00 in /  0 mm 0 W/m2
21:40 50.4 °F /  10.2 °C 47.5 °F /  8.6 °C 30.54 in /  1034.1 hPa WNW 7.0 mph /  11.3 km/h 12.0 mph /  19.3 km/h 90 % 0.00 in /  0 mm 0 W/m2
21:41 50.4 °F /  10.2 °C 47.5 °F /  8.6 °C 30.53 in /  1033.7 hPa WNW 7.0 mph /  11.3 km/h 11.0 mph /  17.7 km/h 90 % 0.00 in /  0 mm 0 W/m2
21:43 50.4 °F /  10.2 °C 47.5 °F /  8.6 °C 30.53 in /  1033.7 hPa WNW 7.0 mph /  11.3 km/h 11.0 mph /  17.7 km/h 90 % 0.00 in /  0 mm 0 W/m2
21:47 50.5 °F /  10.3 °C 47.4 °F /  8.6 °C 30.53 in /  1033.7 hPa NW 7.0 mph /  11.3 km/h 10.0 mph /  16.1 km/h 89 % 0.00 in /  0 mm 0 W/m2
21:53 50.5 °F /  10.3 °C 47.4 °F /  8.6 °C 30.53 in /  1033.7 hPa WNW 5.0 mph /  8 km/h 8.0 mph /  12.9 km/h 89 % 0.00 in /  0 mm 0 W/m2
21:54 50.5 °F /  10.3 °C 47.4 °F /  8.6 °C 30.53 in /  1033.7 hPa WNW 5.0 mph /  8 km/h 7.0 mph /  11.3 km/h 89 % 0.00 in /  0 mm 0 W/m2
21:59 50.5 °F /  10.3 °C 47.4 °F /  8.6 °C 30.54 in /  1034.1 hPa West 6.0 mph /  9.7 km/h 7.0 mph /  11.3 km/h 89 % 0.00 in /  0 mm 0 W/m2
22:01 50.5 °F /  10.3 °C 47.4 °F /  8.6 °C 30.53 in /  1033.7 hPa WNW 5.0 mph /  8 km/h 7.0 mph /  11.3 km/h 89 % 0.00 in /  0 mm 0 W/m2
22:06 50.5 °F /  10.3 °C 47.4 °F /  8.6 °C 30.54 in /  1034.1 hPa WNW 3.0 mph /  4.8 km/h 5.0 mph /  8 km/h 89 % 0.00 in /  0 mm 0 W/m2
22:11 50.5 °F /  10.3 °C 47.4 °F /  8.6 °C 30.54 in /  1034.1 hPa Calm   2.0 mph /  3.2 km/h 89 % 0.00 in /  0 mm 0 W/m2
22:12 50.5 °F /  10.3 °C 47.4 °F /  8.6 °C 30.54 in /  1034.1 hPa Calm   2.0 mph /  3.2 km/h 89 % 0.00 in /  0 mm 0 W/m2
22:17 50.4 °F /  10.2 °C 47.2 °F /  8.4 °C 30.54 in /  1034.1 hPa West 1.0 mph /  1.6 km/h 2.0 mph /  3.2 km/h 89 % 0.00 in /  0 mm 0 W/m2
22:22 50.4 °F /  10.2 °C 46.9 °F /  8.3 °C 30.54 in /  1034.1 hPa West 1.0 mph /  1.6 km/h 2.0 mph /  3.2 km/h 88 % 0.00 in /  0 mm 0 W/m2
22:23 50.4 °F /  10.2 °C 47.2 °F /  8.4 °C 30.54 in /  1034.1 hPa West 1.0 mph /  1.6 km/h 2.0 mph /  3.2 km/h 89 % 0.00 in /  0 mm 0 W/m2
22:29 50.2 °F /  10.1 °C 47.1 °F /  8.4 °C 30.54 in /  1034.1 hPa Calm     89 % 0.00 in /  0 mm 0 W/m2
22:30 50.2 °F /  10.1 °C 47.1 °F /  8.4 °C 30.54 in /  1034.1 hPa Calm     89 % 0.00 in /  0 mm 0 W/m2
22:36 50.0 °F /  10 °C 46.9 °F /  8.3 °C 30.55 in /  1034.4 hPa Calm     89 % 0.00 in /  0 mm 0 W/m2
22:38 49.8 °F /  9.9 °C 46.7 °F /  8.2 °C 30.55 in /  1034.4 hPa Calm     89 % 0.00 in /  0 mm 0 W/m2
22:43 49.8 °F /  9.9 °C 46.7 °F /  8.2 °C 30.54 in /  1034.1 hPa Calm     89 % 0.00 in /  0 mm 0 W/m2
22:48 49.6 °F /  9.8 °C 46.8 °F /  8.2 °C 30.54 in /  1034.1 hPa NNE 1.0 mph /  1.6 km/h 4.0 mph /  6.4 km/h 90 % 0.00 in /  0 mm 0 W/m2
22:49 49.6 °F /  9.8 °C 46.8 °F /  8.2 °C 30.54 in /  1034.1 hPa NE 3.0 mph /  4.8 km/h 4.0 mph /  6.4 km/h 90 % 0.00 in /  0 mm 0 W/m2
22:54 49.6 °F /  9.8 °C 46.8 °F /  8.2 °C 30.54 in /  1034.1 hPa NE 1.0 mph /  1.6 km/h 3.0 mph /  4.8 km/h 90 % 0.00 in /  0 mm 0 W/m2
22:56 49.5 °F /  9.7 °C 46.6 °F /  8.1 °C 30.54 in /  1034.1 hPa NE 2.0 mph /  3.2 km/h 4.0 mph /  6.4 km/h 90 % 0.00 in /  0 mm 0 W/m2
22:59 49.5 °F /  9.7 °C 46.6 °F /  8.1 °C 30.54 in /  1034.1 hPa Calm   2.0 mph /  3.2 km/h 90 % 0.00 in /  0 mm 0 W/m2
23:02 49.5 °F /  9.7 °C 46.6 °F /  8.1 °C 30.54 in /  1034.1 hPa Calm     90 % 0.00 in /  0 mm 0 W/m2
23:07 49.5 °F /  9.7 °C 46.6 °F /  8.1 °C 30.54 in /  1034.1 hPa Calm     90 % 0.00 in /  0 mm 0 W/m2
23:12 49.3 °F /  9.6 °C 46.5 °F /  8.1 °C 30.54 in /  1034.1 hPa Calm     90 % 0.00 in /  0 mm 0 W/m2
23:17 49.3 °F /  9.6 °C 46.5 °F /  8.1 °C 30.55 in /  1034.4 hPa Calm     90 % 0.00 in /  0 mm 0 W/m2
23:18 49.3 °F /  9.6 °C 46.5 °F /  8.1 °C 30.54 in /  1034.1 hPa Calm     90 % 0.00 in /  0 mm 0 W/m2
23:23 48.9 °F /  9.4 °C 46.1 °F /  7.8 °C 30.55 in /  1034.4 hPa Calm     90 % 0.00 in /  0 mm 0 W/m2
23:24 48.9 °F /  9.4 °C 46.1 °F /  7.8 °C 30.55 in /  1034.4 hPa Calm     90 % 0.00 in /  0 mm 0 W/m2
23:31 48.7 °F /  9.3 °C 45.9 °F /  7.7 °C 30.55 in /  1034.4 hPa Calm     90 % 0.00 in /  0 mm 0 W/m2
23:37 48.7 °F /  9.3 °C 46.2 °F /  7.9 °C 30.55 in /  1034.4 hPa Calm     91 % 0.00 in /  0 mm 0 W/m2
23:38 48.6 °F /  9.2 °C 46.1 °F /  7.8 °C 30.55 in /  1034.4 hPa Calm     91 % 0.00 in /  0 mm 0 W/m2
23:43 48.6 °F /  9.2 °C 46.1 °F /  7.8 °C 30.54 in /  1034.1 hPa Calm     91 % 0.00 in /  0 mm 0 W/m2
23:46 48.6 °F /  9.2 °C 46.1 °F /  7.8 °C 30.54 in /  1034.1 hPa Calm     91 % 0.00 in /  0 mm 0 W/m2
23:47 48.6 °F /  9.2 °C 46.1 °F /  7.8 °C 30.54 in /  1034.1 hPa Calm     91 % 0.00 in /  0 mm 0 W/m2
23:57 48.4 °F /  9.1 °C 45.9 °F /  7.7 °C 30.54 in /  1034.1 hPa Calm     91 % 0.00 in /  0 mm 0 W/m2
23:58 48.4 °F /  9.1 °C 45.9 °F /  7.7 °C 30.54 in /  1034.1 hPa Calm     91 % 0.00 in /  0 mm 0 W/m2
Delerius-Weather
Compliments of Weather Underground - 3 mb

Data updates at regular intervals.